<?xml version="1.0" encoding="UTF-8" standalone="no" ?>
<gpx xmlns="http://www.topografix.com/GPX/1/1" xmlns:xsi="http://www.w3.org/2001/XMLSchema-instance" xsi:schemaLocation="http://www.topografix.com/GPX/1/1 http://www.topografix.com/GPX/1/1/gpx.xsd" version="1.1" creator="VisuGPX - https://www.visugpx.com">
  <metadata>
    <name>Reco balade vÃ?Æ?Ã?Â©lo</name>
    <desc><![CDATA[Tronçon  Glamondans - Orsans  16/08/18]]></desc>
  </metadata>
  <trk>
    <name><![CDATA[16 août 2018 à 16:56:49]]></name>
    <cmt><![CDATA[16 août 2018 à 16:56:49]]></cmt>
    <trkseg>
      <trkpt lat="47.2671" lon="6.28103">
        <ele>395</ele>
        <time>2018-08-16T14:56:49Z</time>
      </trkpt>
      <trkpt lat="47.2671" lon="6.28103">
        <ele>395</ele>
        <time>2018-08-16T14:56:50Z</time>
      </trkpt>
      <trkpt lat="47.26693" lon="6.28122">
        <ele>395</ele>
        <time>2018-08-16T14:57:06Z</time>
      </trkpt>
      <trkpt lat="47.26682" lon="6.28131">
        <ele>394</ele>
        <time>2018-08-16T14:57:08Z</time>
      </trkpt>
      <trkpt lat="47.26635" lon="6.28193">
        <ele>395</ele>
        <time>2018-08-16T14:57:16Z</time>
      </trkpt>
      <trkpt lat="47.2663" lon="6.28202">
        <ele>394</ele>
        <time>2018-08-16T14:57:17Z</time>
      </trkpt>
      <trkpt lat="47.26625" lon="6.28212">
        <ele>395</ele>
        <time>2018-08-16T14:57:18Z</time>
      </trkpt>
      <trkpt lat="47.26618" lon="6.28223">
        <ele>395</ele>
        <time>2018-08-16T14:57:19Z</time>
      </trkpt>
      <trkpt lat="47.26612" lon="6.28232">
        <ele>396</ele>
        <time>2018-08-16T14:57:20Z</time>
      </trkpt>
      <trkpt lat="47.26569" lon="6.28283">
        <ele>396</ele>
        <time>2018-08-16T14:57:26Z</time>
      </trkpt>
      <trkpt lat="47.26562" lon="6.2829">
        <ele>397</ele>
        <time>2018-08-16T14:57:27Z</time>
      </trkpt>
      <trkpt lat="47.26547" lon="6.28303">
        <ele>397</ele>
        <time>2018-08-16T14:57:29Z</time>
      </trkpt>
      <trkpt lat="47.2652" lon="6.28328">
        <ele>402</ele>
        <time>2018-08-16T14:57:35Z</time>
      </trkpt>
      <trkpt lat="47.26516" lon="6.28331">
        <ele>401</ele>
        <time>2018-08-16T14:57:37Z</time>
      </trkpt>
      <trkpt lat="47.26509" lon="6.28339">
        <ele>401</ele>
        <time>2018-08-16T14:58:25Z</time>
      </trkpt>
      <trkpt lat="47.26503" lon="6.28345">
        <ele>400</ele>
        <time>2018-08-16T14:58:27Z</time>
      </trkpt>
      <trkpt lat="47.26497" lon="6.28349">
        <ele>401</ele>
        <time>2018-08-16T14:58:29Z</time>
      </trkpt>
      <trkpt lat="47.26487" lon="6.28357">
        <ele>400</ele>
        <time>2018-08-16T14:58:33Z</time>
      </trkpt>
      <trkpt lat="47.2648" lon="6.28363">
        <ele>401</ele>
        <time>2018-08-16T14:58:35Z</time>
      </trkpt>
      <trkpt lat="47.26415" lon="6.2843">
        <ele>399</ele>
        <time>2018-08-16T14:58:46Z</time>
      </trkpt>
      <trkpt lat="47.26409" lon="6.2844">
        <ele>398</ele>
        <time>2018-08-16T14:58:47Z</time>
      </trkpt>
      <trkpt lat="47.26384" lon="6.28477">
        <ele>398</ele>
        <time>2018-08-16T14:58:51Z</time>
      </trkpt>
      <trkpt lat="47.26378" lon="6.28487">
        <ele>399</ele>
        <time>2018-08-16T14:58:52Z</time>
      </trkpt>
      <trkpt lat="47.26357" lon="6.28511">
        <ele>398</ele>
        <time>2018-08-16T14:58:55Z</time>
      </trkpt>
      <trkpt lat="47.2635" lon="6.28519">
        <ele>399</ele>
        <time>2018-08-16T14:58:56Z</time>
      </trkpt>
      <trkpt lat="47.26334" lon="6.28535">
        <ele>399</ele>
        <time>2018-08-16T14:58:58Z</time>
      </trkpt>
      <trkpt lat="47.26325" lon="6.28542">
        <ele>398</ele>
        <time>2018-08-16T14:58:59Z</time>
      </trkpt>
      <trkpt lat="47.26316" lon="6.2855">
        <ele>398</ele>
        <time>2018-08-16T14:59:00Z</time>
      </trkpt>
      <trkpt lat="47.26308" lon="6.28557">
        <ele>399</ele>
        <time>2018-08-16T14:59:01Z</time>
      </trkpt>
      <trkpt lat="47.26292" lon="6.28571">
        <ele>399</ele>
        <time>2018-08-16T14:59:03Z</time>
      </trkpt>
      <trkpt lat="47.26284" lon="6.28579">
        <ele>399</ele>
        <time>2018-08-16T14:59:04Z</time>
      </trkpt>
      <trkpt lat="47.26276" lon="6.28585">
        <ele>398</ele>
        <time>2018-08-16T14:59:05Z</time>
      </trkpt>
      <trkpt lat="47.26269" lon="6.2859">
        <ele>399</ele>
        <time>2018-08-16T14:59:06Z</time>
      </trkpt>
      <trkpt lat="47.26261" lon="6.28594">
        <ele>399</ele>
        <time>2018-08-16T14:59:07Z</time>
      </trkpt>
      <trkpt lat="47.26254" lon="6.28597">
        <ele>399</ele>
        <time>2018-08-16T14:59:08Z</time>
      </trkpt>
      <trkpt lat="47.26247" lon="6.286">
        <ele>398</ele>
        <time>2018-08-16T14:59:09Z</time>
      </trkpt>
      <trkpt lat="47.26239" lon="6.28603">
        <ele>396</ele>
        <time>2018-08-16T14:59:10Z</time>
      </trkpt>
      <trkpt lat="47.26233" lon="6.28604">
        <ele>396</ele>
        <time>2018-08-16T14:59:11Z</time>
      </trkpt>
      <trkpt lat="47.26227" lon="6.28604">
        <ele>397</ele>
        <time>2018-08-16T14:59:12Z</time>
      </trkpt>
      <trkpt lat="47.26221" lon="6.28603">
        <ele>397</ele>
        <time>2018-08-16T14:59:13Z</time>
      </trkpt>
      <trkpt lat="47.26215" lon="6.28604">
        <ele>396</ele>
        <time>2018-08-16T14:59:14Z</time>
      </trkpt>
      <trkpt lat="47.2621" lon="6.28602">
        <ele>396</ele>
        <time>2018-08-16T14:59:15Z</time>
      </trkpt>
      <trkpt lat="47.26204" lon="6.28601">
        <ele>397</ele>
        <time>2018-08-16T14:59:20Z</time>
      </trkpt>
      <trkpt lat="47.26199" lon="6.28599">
        <ele>397</ele>
        <time>2018-08-16T14:59:31Z</time>
      </trkpt>
      <trkpt lat="47.26192" lon="6.28599">
        <ele>398</ele>
        <time>2018-08-16T14:59:33Z</time>
      </trkpt>
      <trkpt lat="47.26185" lon="6.286">
        <ele>399</ele>
        <time>2018-08-16T14:59:35Z</time>
      </trkpt>
      <trkpt lat="47.26176" lon="6.2861">
        <ele>400</ele>
        <time>2018-08-16T14:59:37Z</time>
      </trkpt>
      <trkpt lat="47.26167" lon="6.28621">
        <ele>399</ele>
        <time>2018-08-16T14:59:39Z</time>
      </trkpt>
      <trkpt lat="47.26163" lon="6.28628">
        <ele>399</ele>
        <time>2018-08-16T14:59:40Z</time>
      </trkpt>
      <trkpt lat="47.2616" lon="6.28633">
        <ele>398</ele>
        <time>2018-08-16T14:59:41Z</time>
      </trkpt>
      <trkpt lat="47.26157" lon="6.28641">
        <ele>398</ele>
        <time>2018-08-16T14:59:43Z</time>
      </trkpt>
      <trkpt lat="47.26153" lon="6.28651">
        <ele>400</ele>
        <time>2018-08-16T15:00:08Z</time>
      </trkpt>
      <trkpt lat="47.2615" lon="6.28656">
        <ele>400</ele>
        <time>2018-08-16T15:00:09Z</time>
      </trkpt>
      <trkpt lat="47.26141" lon="6.28678">
        <ele>402</ele>
        <time>2018-08-16T15:00:12Z</time>
      </trkpt>
      <trkpt lat="47.26138" lon="6.28688">
        <ele>401</ele>
        <time>2018-08-16T15:00:13Z</time>
      </trkpt>
      <trkpt lat="47.26135" lon="6.28697">
        <ele>402</ele>
        <time>2018-08-16T15:00:14Z</time>
      </trkpt>
      <trkpt lat="47.26132" lon="6.28707">
        <ele>402</ele>
        <time>2018-08-16T15:00:15Z</time>
      </trkpt>
      <trkpt lat="47.26125" lon="6.28741">
        <ele>402</ele>
        <time>2018-08-16T15:00:18Z</time>
      </trkpt>
      <trkpt lat="47.26123" lon="6.28753">
        <ele>403</ele>
        <time>2018-08-16T15:00:19Z</time>
      </trkpt>
      <trkpt lat="47.26114" lon="6.28834">
        <ele>400</ele>
        <time>2018-08-16T15:00:25Z</time>
      </trkpt>
      <trkpt lat="47.26105" lon="6.28908">
        <ele>402</ele>
        <time>2018-08-16T15:00:30Z</time>
      </trkpt>
      <trkpt lat="47.261" lon="6.2894">
        <ele>402</ele>
        <time>2018-08-16T15:00:32Z</time>
      </trkpt>
      <trkpt lat="47.26099" lon="6.28956">
        <ele>403</ele>
        <time>2018-08-16T15:00:33Z</time>
      </trkpt>
      <trkpt lat="47.26094" lon="6.29">
        <ele>403</ele>
        <time>2018-08-16T15:00:36Z</time>
      </trkpt>
      <trkpt lat="47.26093" lon="6.29127">
        <ele>407</ele>
        <time>2018-08-16T15:00:45Z</time>
      </trkpt>
      <trkpt lat="47.26097" lon="6.29172">
        <ele>408</ele>
        <time>2018-08-16T15:00:48Z</time>
      </trkpt>
      <trkpt lat="47.26099" lon="6.29187">
        <ele>409</ele>
        <time>2018-08-16T15:00:49Z</time>
      </trkpt>
      <trkpt lat="47.2614" lon="6.29559">
        <ele>411</ele>
        <time>2018-08-16T15:01:10Z</time>
      </trkpt>
      <trkpt lat="47.26142" lon="6.29577">
        <ele>413</ele>
        <time>2018-08-16T15:01:11Z</time>
      </trkpt>
      <trkpt lat="47.26144" lon="6.29593">
        <ele>413</ele>
        <time>2018-08-16T15:01:12Z</time>
      </trkpt>
      <trkpt lat="47.26146" lon="6.29611">
        <ele>412</ele>
        <time>2018-08-16T15:01:13Z</time>
      </trkpt>
      <trkpt lat="47.26166" lon="6.29776">
        <ele>413</ele>
        <time>2018-08-16T15:01:23Z</time>
      </trkpt>
      <trkpt lat="47.2617" lon="6.29792">
        <ele>411</ele>
        <time>2018-08-16T15:01:24Z</time>
      </trkpt>
      <trkpt lat="47.26173" lon="6.29809">
        <ele>411</ele>
        <time>2018-08-16T15:01:25Z</time>
      </trkpt>
      <trkpt lat="47.26176" lon="6.29825">
        <ele>411</ele>
        <time>2018-08-16T15:01:26Z</time>
      </trkpt>
      <trkpt lat="47.26182" lon="6.29859">
        <ele>413</ele>
        <time>2018-08-16T15:01:28Z</time>
      </trkpt>
      <trkpt lat="47.26185" lon="6.29876">
        <ele>413</ele>
        <time>2018-08-16T15:01:29Z</time>
      </trkpt>
      <trkpt lat="47.26188" lon="6.29893">
        <ele>414</ele>
        <time>2018-08-16T15:01:30Z</time>
      </trkpt>
      <trkpt lat="47.26191" lon="6.29911">
        <ele>414</ele>
        <time>2018-08-16T15:01:31Z</time>
      </trkpt>
      <trkpt lat="47.262" lon="6.29946">
        <ele>413</ele>
        <time>2018-08-16T15:01:33Z</time>
      </trkpt>
      <trkpt lat="47.26232" lon="6.30086">
        <ele>416</ele>
        <time>2018-08-16T15:01:41Z</time>
      </trkpt>
      <trkpt lat="47.26236" lon="6.30103">
        <ele>417</ele>
        <time>2018-08-16T15:01:42Z</time>
      </trkpt>
      <trkpt lat="47.26281" lon="6.30338">
        <ele>422</ele>
        <time>2018-08-16T15:01:55Z</time>
      </trkpt>
      <trkpt lat="47.26302" lon="6.3038">
        <ele>424</ele>
        <time>2018-08-16T15:01:58Z</time>
      </trkpt>
      <trkpt lat="47.26309" lon="6.3039">
        <ele>424</ele>
        <time>2018-08-16T15:01:59Z</time>
      </trkpt>
      <trkpt lat="47.26351" lon="6.30409">
        <ele>428</ele>
        <time>2018-08-16T15:02:03Z</time>
      </trkpt>
      <trkpt lat="47.26367" lon="6.30425">
        <ele>426</ele>
        <time>2018-08-16T15:02:05Z</time>
      </trkpt>
      <trkpt lat="47.26372" lon="6.30435">
        <ele>427</ele>
        <time>2018-08-16T15:02:06Z</time>
      </trkpt>
      <trkpt lat="47.26378" lon="6.30447">
        <ele>427</ele>
        <time>2018-08-16T15:02:07Z</time>
      </trkpt>
      <trkpt lat="47.26382" lon="6.3046">
        <ele>427</ele>
        <time>2018-08-16T15:02:08Z</time>
      </trkpt>
      <trkpt lat="47.26385" lon="6.30476">
        <ele>427</ele>
        <time>2018-08-16T15:02:09Z</time>
      </trkpt>
      <trkpt lat="47.26387" lon="6.30491">
        <ele>427</ele>
        <time>2018-08-16T15:02:10Z</time>
      </trkpt>
      <trkpt lat="47.2639" lon="6.30505">
        <ele>428</ele>
        <time>2018-08-16T15:02:11Z</time>
      </trkpt>
      <trkpt lat="47.26392" lon="6.30523">
        <ele>429</ele>
        <time>2018-08-16T15:02:12Z</time>
      </trkpt>
      <trkpt lat="47.26396" lon="6.3054">
        <ele>429</ele>
        <time>2018-08-16T15:02:13Z</time>
      </trkpt>
      <trkpt lat="47.26398" lon="6.30556">
        <ele>430</ele>
        <time>2018-08-16T15:02:14Z</time>
      </trkpt>
      <trkpt lat="47.26403" lon="6.30572">
        <ele>428</ele>
        <time>2018-08-16T15:02:15Z</time>
      </trkpt>
      <trkpt lat="47.26459" lon="6.30781">
        <ele>430</ele>
        <time>2018-08-16T15:02:27Z</time>
      </trkpt>
      <trkpt lat="47.26461" lon="6.30799">
        <ele>429</ele>
        <time>2018-08-16T15:02:28Z</time>
      </trkpt>
      <trkpt lat="47.26463" lon="6.30814">
        <ele>429</ele>
        <time>2018-08-16T15:02:29Z</time>
      </trkpt>
      <trkpt lat="47.26467" lon="6.30829">
        <ele>428</ele>
        <time>2018-08-16T15:02:30Z</time>
      </trkpt>
      <trkpt lat="47.26504" lon="6.30968">
        <ele>429</ele>
        <time>2018-08-16T15:02:38Z</time>
      </trkpt>
      <trkpt lat="47.2651" lon="6.30985">
        <ele>430</ele>
        <time>2018-08-16T15:02:39Z</time>
      </trkpt>
      <trkpt lat="47.26521" lon="6.31015">
        <ele>429</ele>
        <time>2018-08-16T15:02:41Z</time>
      </trkpt>
      <trkpt lat="47.26529" lon="6.31059">
        <ele>430</ele>
        <time>2018-08-16T15:02:44Z</time>
      </trkpt>
      <trkpt lat="47.2653" lon="6.31077">
        <ele>429</ele>
        <time>2018-08-16T15:02:45Z</time>
      </trkpt>
      <trkpt lat="47.26531" lon="6.31093">
        <ele>429</ele>
        <time>2018-08-16T15:02:46Z</time>
      </trkpt>
      <trkpt lat="47.26522" lon="6.31201">
        <ele>424</ele>
        <time>2018-08-16T15:02:52Z</time>
      </trkpt>
      <trkpt lat="47.2651" lon="6.31437">
        <ele>423</ele>
        <time>2018-08-16T15:03:04Z</time>
      </trkpt>
      <trkpt lat="47.26511" lon="6.31474">
        <ele>422</ele>
        <time>2018-08-16T15:03:06Z</time>
      </trkpt>
      <trkpt lat="47.26511" lon="6.31528">
        <ele>419</ele>
        <time>2018-08-16T15:03:09Z</time>
      </trkpt>
      <trkpt lat="47.26496" lon="6.31611">
        <ele>415</ele>
        <time>2018-08-16T15:03:14Z</time>
      </trkpt>
      <trkpt lat="47.26494" lon="6.31625">
        <ele>416</ele>
        <time>2018-08-16T15:03:15Z</time>
      </trkpt>
      <trkpt lat="47.26492" lon="6.31639">
        <ele>416</ele>
        <time>2018-08-16T15:03:16Z</time>
      </trkpt>
      <trkpt lat="47.26493" lon="6.31654">
        <ele>416</ele>
        <time>2018-08-16T15:03:17Z</time>
      </trkpt>
      <trkpt lat="47.26494" lon="6.31669">
        <ele>416</ele>
        <time>2018-08-16T15:03:18Z</time>
      </trkpt>
      <trkpt lat="47.26551" lon="6.31973">
        <ele>418</ele>
        <time>2018-08-16T15:03:36Z</time>
      </trkpt>
      <trkpt lat="47.26556" lon="6.32034">
        <ele>417</ele>
        <time>2018-08-16T15:03:40Z</time>
      </trkpt>
      <trkpt lat="47.26569" lon="6.32079">
        <ele>416</ele>
        <time>2018-08-16T15:03:43Z</time>
      </trkpt>
      <trkpt lat="47.26575" lon="6.32095">
        <ele>415</ele>
        <time>2018-08-16T15:03:44Z</time>
      </trkpt>
      <trkpt lat="47.26589" lon="6.32124">
        <ele>416</ele>
        <time>2018-08-16T15:03:46Z</time>
      </trkpt>
      <trkpt lat="47.26608" lon="6.32166">
        <ele>415</ele>
        <time>2018-08-16T15:03:49Z</time>
      </trkpt>
      <trkpt lat="47.26617" lon="6.32192">
        <ele>416</ele>
        <time>2018-08-16T15:03:51Z</time>
      </trkpt>
      <trkpt lat="47.26621" lon="6.32214">
        <ele>414</ele>
        <time>2018-08-16T15:03:53Z</time>
      </trkpt>
      <trkpt lat="47.26621" lon="6.32224">
        <ele>414</ele>
        <time>2018-08-16T15:03:54Z</time>
      </trkpt>
      <trkpt lat="47.26617" lon="6.32245">
        <ele>414</ele>
        <time>2018-08-16T15:03:56Z</time>
      </trkpt>
      <trkpt lat="47.26614" lon="6.32253">
        <ele>415</ele>
        <time>2018-08-16T15:03:57Z</time>
      </trkpt>
      <trkpt lat="47.26611" lon="6.3226">
        <ele>415</ele>
        <time>2018-08-16T15:03:58Z</time>
      </trkpt>
      <trkpt lat="47.26606" lon="6.32268">
        <ele>415</ele>
        <time>2018-08-16T15:03:59Z</time>
      </trkpt>
      <trkpt lat="47.26598" lon="6.32289">
        <ele>412</ele>
        <time>2018-08-16T15:04:01Z</time>
      </trkpt>
      <trkpt lat="47.26593" lon="6.32299">
        <ele>412</ele>
        <time>2018-08-16T15:04:02Z</time>
      </trkpt>
      <trkpt lat="47.26586" lon="6.3232">
        <ele>407</ele>
        <time>2018-08-16T15:04:04Z</time>
      </trkpt>
      <trkpt lat="47.26582" lon="6.32329">
        <ele>407</ele>
        <time>2018-08-16T15:04:05Z</time>
      </trkpt>
      <trkpt lat="47.26578" lon="6.32337">
        <ele>407</ele>
        <time>2018-08-16T15:04:06Z</time>
      </trkpt>
      <trkpt lat="47.26572" lon="6.32336">
        <ele>404</ele>
        <time>2018-08-16T15:04:16Z</time>
      </trkpt>
      <trkpt lat="47.26568" lon="6.32342">
        <ele>408</ele>
        <time>2018-08-16T15:07:36Z</time>
      </trkpt>
      <trkpt lat="47.2656" lon="6.32343">
        <ele>409</ele>
        <time>2018-08-16T15:07:38Z</time>
      </trkpt>
      <trkpt lat="47.26555" lon="6.32341">
        <ele>410</ele>
        <time>2018-08-16T15:07:39Z</time>
      </trkpt>
      <trkpt lat="47.26543" lon="6.32329">
        <ele>411</ele>
        <time>2018-08-16T15:07:41Z</time>
      </trkpt>
      <trkpt lat="47.26523" lon="6.32312">
        <ele>410</ele>
        <time>2018-08-16T15:07:44Z</time>
      </trkpt>
      <trkpt lat="47.26498" lon="6.323">
        <ele>411</ele>
        <time>2018-08-16T15:07:47Z</time>
      </trkpt>
      <trkpt lat="47.26252" lon="6.3222">
        <ele>417</ele>
        <time>2018-08-16T15:08:23Z</time>
      </trkpt>
      <trkpt lat="47.26223" lon="6.32211">
        <ele>416</ele>
        <time>2018-08-16T15:08:27Z</time>
      </trkpt>
      <trkpt lat="47.26215" lon="6.32207">
        <ele>417</ele>
        <time>2018-08-16T15:08:28Z</time>
      </trkpt>
      <trkpt lat="47.26205" lon="6.32204">
        <ele>414</ele>
        <time>2018-08-16T15:08:29Z</time>
      </trkpt>
      <trkpt lat="47.2606" lon="6.32147">
        <ele>414</ele>
        <time>2018-08-16T15:08:43Z</time>
      </trkpt>
      <trkpt lat="47.26054" lon="6.32146">
        <ele>415</ele>
        <time>2018-08-16T15:08:44Z</time>
      </trkpt>
      <trkpt lat="47.26048" lon="6.32144">
        <ele>415</ele>
        <time>2018-08-16T15:08:45Z</time>
      </trkpt>
      <trkpt lat="47.26044" lon="6.32141">
        <ele>414</ele>
        <time>2018-08-16T15:08:46Z</time>
      </trkpt>
      <trkpt lat="47.26039" lon="6.32141">
        <ele>414</ele>
        <time>2018-08-16T15:08:47Z</time>
      </trkpt>
      <trkpt lat="47.26035" lon="6.32144">
        <ele>414</ele>
        <time>2018-08-16T15:08:48Z</time>
      </trkpt>
      <trkpt lat="47.26028" lon="6.32156">
        <ele>414</ele>
        <time>2018-08-16T15:08:50Z</time>
      </trkpt>
      <trkpt lat="47.26024" lon="6.32163">
        <ele>414</ele>
        <time>2018-08-16T15:08:51Z</time>
      </trkpt>
      <trkpt lat="47.26012" lon="6.3218">
        <ele>414</ele>
        <time>2018-08-16T15:08:53Z</time>
      </trkpt>
      <trkpt lat="47.25993" lon="6.32208">
        <ele>414</ele>
        <time>2018-08-16T15:08:56Z</time>
      </trkpt>
      <trkpt lat="47.25979" lon="6.32232">
        <ele>413</ele>
        <time>2018-08-16T15:08:58Z</time>
      </trkpt>
      <trkpt lat="47.25957" lon="6.32267">
        <ele>415</ele>
        <time>2018-08-16T15:09:01Z</time>
      </trkpt>
      <trkpt lat="47.25949" lon="6.3228">
        <ele>415</ele>
        <time>2018-08-16T15:09:02Z</time>
      </trkpt>
      <trkpt lat="47.25943" lon="6.32293">
        <ele>416</ele>
        <time>2018-08-16T15:09:03Z</time>
      </trkpt>
      <trkpt lat="47.25935" lon="6.32306">
        <ele>416</ele>
        <time>2018-08-16T15:09:04Z</time>
      </trkpt>
      <trkpt lat="47.25928" lon="6.32317">
        <ele>417</ele>
        <time>2018-08-16T15:09:05Z</time>
      </trkpt>
      <trkpt lat="47.25921" lon="6.32329">
        <ele>417</ele>
        <time>2018-08-16T15:09:06Z</time>
      </trkpt>
      <trkpt lat="47.25914" lon="6.32341">
        <ele>418</ele>
        <time>2018-08-16T15:09:07Z</time>
      </trkpt>
      <trkpt lat="47.25867" lon="6.32413">
        <ele>417</ele>
        <time>2018-08-16T15:09:16Z</time>
      </trkpt>
      <trkpt lat="47.25864" lon="6.32422">
        <ele>416</ele>
        <time>2018-08-16T15:10:59Z</time>
      </trkpt>
      <trkpt lat="47.2586" lon="6.3243">
        <ele>416</ele>
        <time>2018-08-16T15:11:01Z</time>
      </trkpt>
      <trkpt lat="47.2585" lon="6.32447">
        <ele>417</ele>
        <time>2018-08-16T15:11:04Z</time>
      </trkpt>
      <trkpt lat="47.25846" lon="6.32455">
        <ele>417</ele>
        <time>2018-08-16T15:11:05Z</time>
      </trkpt>
      <trkpt lat="47.25821" lon="6.32497">
        <ele>417</ele>
        <time>2018-08-16T15:11:10Z</time>
      </trkpt>
      <trkpt lat="47.25518" lon="6.32976">
        <ele>418</ele>
        <time>2018-08-16T15:11:41Z</time>
      </trkpt>
      <trkpt lat="47.25461" lon="6.33057">
        <ele>420</ele>
        <time>2018-08-16T15:11:46Z</time>
      </trkpt>
      <trkpt lat="47.25298" lon="6.33182">
        <ele>421</ele>
        <time>2018-08-16T15:11:58Z</time>
      </trkpt>
      <trkpt lat="47.25254" lon="6.33199">
        <ele>422</ele>
        <time>2018-08-16T15:12:01Z</time>
      </trkpt>
      <trkpt lat="47.25239" lon="6.33202">
        <ele>424</ele>
        <time>2018-08-16T15:12:02Z</time>
      </trkpt>
      <trkpt lat="47.25195" lon="6.33207">
        <ele>423</ele>
        <time>2018-08-16T15:12:05Z</time>
      </trkpt>
      <trkpt lat="47.25168" lon="6.33205">
        <ele>424</ele>
        <time>2018-08-16T15:12:07Z</time>
      </trkpt>
      <trkpt lat="47.25126" lon="6.33194">
        <ele>421</ele>
        <time>2018-08-16T15:12:10Z</time>
      </trkpt>
      <trkpt lat="47.25113" lon="6.33189">
        <ele>421</ele>
        <time>2018-08-16T15:12:11Z</time>
      </trkpt>
      <trkpt lat="47.25101" lon="6.33185">
        <ele>420</ele>
        <time>2018-08-16T15:12:12Z</time>
      </trkpt>
      <trkpt lat="47.25093" lon="6.33182">
        <ele>422</ele>
        <time>2018-08-16T15:12:13Z</time>
      </trkpt>
      <trkpt lat="47.25082" lon="6.33181">
        <ele>422</ele>
        <time>2018-08-16T15:12:14Z</time>
      </trkpt>
      <trkpt lat="47.25071" lon="6.33184">
        <ele>423</ele>
        <time>2018-08-16T15:12:15Z</time>
      </trkpt>
      <trkpt lat="47.2506" lon="6.33192">
        <ele>422</ele>
        <time>2018-08-16T15:12:16Z</time>
      </trkpt>
      <trkpt lat="47.2505" lon="6.33202">
        <ele>421</ele>
        <time>2018-08-16T15:12:17Z</time>
      </trkpt>
      <trkpt lat="47.25042" lon="6.33215">
        <ele>420</ele>
        <time>2018-08-16T15:12:18Z</time>
      </trkpt>
      <trkpt lat="47.25036" lon="6.3323">
        <ele>421</ele>
        <time>2018-08-16T15:12:19Z</time>
      </trkpt>
      <trkpt lat="47.25031" lon="6.33248">
        <ele>420</ele>
        <time>2018-08-16T15:12:20Z</time>
      </trkpt>
      <trkpt lat="47.25029" lon="6.33284">
        <ele>417</ele>
        <time>2018-08-16T15:12:22Z</time>
      </trkpt>
      <trkpt lat="47.2503" lon="6.33299">
        <ele>417</ele>
        <time>2018-08-16T15:12:23Z</time>
      </trkpt>
      <trkpt lat="47.2505" lon="6.33337">
        <ele>419</ele>
        <time>2018-08-16T15:12:26Z</time>
      </trkpt>
      <trkpt lat="47.25062" lon="6.33345">
        <ele>419</ele>
        <time>2018-08-16T15:12:27Z</time>
      </trkpt>
      <trkpt lat="47.25072" lon="6.33355">
        <ele>417</ele>
        <time>2018-08-16T15:12:28Z</time>
      </trkpt>
      <trkpt lat="47.25099" lon="6.33394">
        <ele>420</ele>
        <time>2018-08-16T15:12:31Z</time>
      </trkpt>
      <trkpt lat="47.25121" lon="6.33439">
        <ele>420</ele>
        <time>2018-08-16T15:12:34Z</time>
      </trkpt>
      <trkpt lat="47.25126" lon="6.33454">
        <ele>422</ele>
        <time>2018-08-16T15:12:35Z</time>
      </trkpt>
      <trkpt lat="47.25132" lon="6.33485">
        <ele>421</ele>
        <time>2018-08-16T15:12:37Z</time>
      </trkpt>
      <trkpt lat="47.25134" lon="6.335">
        <ele>422</ele>
        <time>2018-08-16T15:12:38Z</time>
      </trkpt>
      <trkpt lat="47.25122" lon="6.33516">
        <ele>423</ele>
        <time>2018-08-16T15:12:39Z</time>
      </trkpt>
      <trkpt lat="47.25117" lon="6.33531">
        <ele>423</ele>
        <time>2018-08-16T15:12:40Z</time>
      </trkpt>
      <trkpt lat="47.251" lon="6.33558">
        <ele>423</ele>
        <time>2018-08-16T15:12:42Z</time>
      </trkpt>
      <trkpt lat="47.25089" lon="6.33571">
        <ele>422</ele>
        <time>2018-08-16T15:12:43Z</time>
      </trkpt>
      <trkpt lat="47.25066" lon="6.33594">
        <ele>423</ele>
        <time>2018-08-16T15:12:45Z</time>
      </trkpt>
      <trkpt lat="47.25" lon="6.33649">
        <ele>424</ele>
        <time>2018-08-16T15:12:50Z</time>
      </trkpt>
      <trkpt lat="47.24938" lon="6.33709">
        <ele>423</ele>
        <time>2018-08-16T15:12:55Z</time>
      </trkpt>
      <trkpt lat="47.24931" lon="6.33724">
        <ele>422</ele>
        <time>2018-08-16T15:12:56Z</time>
      </trkpt>
      <trkpt lat="47.24926" lon="6.33741">
        <ele>422</ele>
        <time>2018-08-16T15:12:57Z</time>
      </trkpt>
      <trkpt lat="47.24919" lon="6.33806">
        <ele>423</ele>
        <time>2018-08-16T15:13:00Z</time>
      </trkpt>
      <trkpt lat="47.24919" lon="6.3385">
        <ele>425</ele>
        <time>2018-08-16T15:13:02Z</time>
      </trkpt>
      <trkpt lat="47.24918" lon="6.33871">
        <ele>424</ele>
        <time>2018-08-16T15:13:03Z</time>
      </trkpt>
      <trkpt lat="47.24916" lon="6.33892">
        <ele>426</ele>
        <time>2018-08-16T15:13:04Z</time>
      </trkpt>
      <trkpt lat="47.24899" lon="6.33956">
        <ele>426</ele>
        <time>2018-08-16T15:13:07Z</time>
      </trkpt>
      <trkpt lat="47.24882" lon="6.33993">
        <ele>427</ele>
        <time>2018-08-16T15:13:09Z</time>
      </trkpt>
      <trkpt lat="47.24865" lon="6.34033">
        <ele>427</ele>
        <time>2018-08-16T15:13:11Z</time>
      </trkpt>
      <trkpt lat="47.24843" lon="6.34085">
        <ele>429</ele>
        <time>2018-08-16T15:13:14Z</time>
      </trkpt>
      <trkpt lat="47.24835" lon="6.34123">
        <ele>429</ele>
        <time>2018-08-16T15:13:16Z</time>
      </trkpt>
      <trkpt lat="47.24833" lon="6.34143">
        <ele>430</ele>
        <time>2018-08-16T15:13:17Z</time>
      </trkpt>
      <trkpt lat="47.24831" lon="6.34165">
        <ele>430</ele>
        <time>2018-08-16T15:13:18Z</time>
      </trkpt>
      <trkpt lat="47.24826" lon="6.34232">
        <ele>429</ele>
        <time>2018-08-16T15:13:21Z</time>
      </trkpt>
      <trkpt lat="47.24824" lon="6.34254">
        <ele>427</ele>
        <time>2018-08-16T15:13:22Z</time>
      </trkpt>
      <trkpt lat="47.24821" lon="6.34275">
        <ele>428</ele>
        <time>2018-08-16T15:13:23Z</time>
      </trkpt>
      <trkpt lat="47.24818" lon="6.34295">
        <ele>428</ele>
        <time>2018-08-16T15:13:24Z</time>
      </trkpt>
      <trkpt lat="47.24793" lon="6.34349">
        <ele>429</ele>
        <time>2018-08-16T15:13:27Z</time>
      </trkpt>
      <trkpt lat="47.24783" lon="6.34368">
        <ele>428</ele>
        <time>2018-08-16T15:13:28Z</time>
      </trkpt>
      <trkpt lat="47.24775" lon="6.34384">
        <ele>429</ele>
        <time>2018-08-16T15:13:29Z</time>
      </trkpt>
      <trkpt lat="47.24768" lon="6.344">
        <ele>429</ele>
        <time>2018-08-16T15:13:30Z</time>
      </trkpt>
      <trkpt lat="47.24757" lon="6.34434">
        <ele>429</ele>
        <time>2018-08-16T15:13:32Z</time>
      </trkpt>
      <trkpt lat="47.24757" lon="6.34451">
        <ele>429</ele>
        <time>2018-08-16T15:13:33Z</time>
      </trkpt>
      <trkpt lat="47.24758" lon="6.34468">
        <ele>429</ele>
        <time>2018-08-16T15:13:34Z</time>
      </trkpt>
      <trkpt lat="47.24762" lon="6.34483">
        <ele>431</ele>
        <time>2018-08-16T15:13:35Z</time>
      </trkpt>
      <trkpt lat="47.24767" lon="6.34501">
        <ele>430</ele>
        <time>2018-08-16T15:13:36Z</time>
      </trkpt>
      <trkpt lat="47.24773" lon="6.34516">
        <ele>431</ele>
        <time>2018-08-16T15:13:37Z</time>
      </trkpt>
      <trkpt lat="47.2479" lon="6.34539">
        <ele>431</ele>
        <time>2018-08-16T15:13:39Z</time>
      </trkpt>
      <trkpt lat="47.248" lon="6.34548">
        <ele>430</ele>
        <time>2018-08-16T15:13:40Z</time>
      </trkpt>
      <trkpt lat="47.24823" lon="6.34564">
        <ele>432</ele>
        <time>2018-08-16T15:13:42Z</time>
      </trkpt>
      <trkpt lat="47.24852" lon="6.34592">
        <ele>435</ele>
        <time>2018-08-16T15:13:45Z</time>
      </trkpt>
      <trkpt lat="47.2486" lon="6.34602">
        <ele>434</ele>
        <time>2018-08-16T15:13:46Z</time>
      </trkpt>
      <trkpt lat="47.24875" lon="6.34625">
        <ele>435</ele>
        <time>2018-08-16T15:13:48Z</time>
      </trkpt>
      <trkpt lat="47.24881" lon="6.34636">
        <ele>435</ele>
        <time>2018-08-16T15:13:49Z</time>
      </trkpt>
      <trkpt lat="47.24886" lon="6.34648">
        <ele>436</ele>
        <time>2018-08-16T15:13:50Z</time>
      </trkpt>
      <trkpt lat="47.24892" lon="6.34658">
        <ele>436</ele>
        <time>2018-08-16T15:13:51Z</time>
      </trkpt>
      <trkpt lat="47.24905" lon="6.34676">
        <ele>435</ele>
        <time>2018-08-16T15:13:53Z</time>
      </trkpt>
      <trkpt lat="47.2492" lon="6.34692">
        <ele>435</ele>
        <time>2018-08-16T15:13:55Z</time>
      </trkpt>
      <trkpt lat="47.24937" lon="6.34701">
        <ele>436</ele>
        <time>2018-08-16T15:13:57Z</time>
      </trkpt>
      <trkpt lat="47.24962" lon="6.34713">
        <ele>436</ele>
        <time>2018-08-16T15:14:00Z</time>
      </trkpt>
      <trkpt lat="47.24979" lon="6.34729">
        <ele>436</ele>
        <time>2018-08-16T15:14:02Z</time>
      </trkpt>
      <trkpt lat="47.24987" lon="6.34738">
        <ele>435</ele>
        <time>2018-08-16T15:14:03Z</time>
      </trkpt>
      <trkpt lat="47.25051" lon="6.34816">
        <ele>435</ele>
        <time>2018-08-16T15:14:10Z</time>
      </trkpt>
      <trkpt lat="47.25065" lon="6.34839">
        <ele>437</ele>
        <time>2018-08-16T15:14:12Z</time>
      </trkpt>
      <trkpt lat="47.25077" lon="6.34881">
        <ele>438</ele>
        <time>2018-08-16T15:14:15Z</time>
      </trkpt>
      <trkpt lat="47.25082" lon="6.34893">
        <ele>438</ele>
        <time>2018-08-16T15:14:16Z</time>
      </trkpt>
      <trkpt lat="47.25098" lon="6.34938">
        <ele>436</ele>
        <time>2018-08-16T15:14:19Z</time>
      </trkpt>
      <trkpt lat="47.25101" lon="6.34953">
        <ele>437</ele>
        <time>2018-08-16T15:14:20Z</time>
      </trkpt>
      <trkpt lat="47.25105" lon="6.34971">
        <ele>437</ele>
        <time>2018-08-16T15:14:21Z</time>
      </trkpt>
      <trkpt lat="47.25107" lon="6.34989">
        <ele>436</ele>
        <time>2018-08-16T15:14:22Z</time>
      </trkpt>
      <trkpt lat="47.25108" lon="6.35006">
        <ele>437</ele>
        <time>2018-08-16T15:14:23Z</time>
      </trkpt>
      <trkpt lat="47.25109" lon="6.35024">
        <ele>437</ele>
        <time>2018-08-16T15:14:24Z</time>
      </trkpt>
      <trkpt lat="47.25117" lon="6.35125">
        <ele>439</ele>
        <time>2018-08-16T15:14:29Z</time>
      </trkpt>
      <trkpt lat="47.2512" lon="6.35146">
        <ele>439</ele>
        <time>2018-08-16T15:14:30Z</time>
      </trkpt>
      <trkpt lat="47.25133" lon="6.35204">
        <ele>442</ele>
        <time>2018-08-16T15:14:33Z</time>
      </trkpt>
      <trkpt lat="47.25147" lon="6.35237">
        <ele>443</ele>
        <time>2018-08-16T15:14:35Z</time>
      </trkpt>
      <trkpt lat="47.25166" lon="6.35308">
        <ele>443</ele>
        <time>2018-08-16T15:14:39Z</time>
      </trkpt>
      <trkpt lat="47.25169" lon="6.35346">
        <ele>445</ele>
        <time>2018-08-16T15:14:41Z</time>
      </trkpt>
      <trkpt lat="47.2518" lon="6.35443">
        <ele>443</ele>
        <time>2018-08-16T15:14:46Z</time>
      </trkpt>
      <trkpt lat="47.25182" lon="6.35461">
        <ele>442</ele>
        <time>2018-08-16T15:14:47Z</time>
      </trkpt>
      <trkpt lat="47.25179" lon="6.3552">
        <ele>443</ele>
        <time>2018-08-16T15:14:50Z</time>
      </trkpt>
      <trkpt lat="47.25175" lon="6.35559">
        <ele>442</ele>
        <time>2018-08-16T15:14:52Z</time>
      </trkpt>
      <trkpt lat="47.25171" lon="6.35598">
        <ele>444</ele>
        <time>2018-08-16T15:14:54Z</time>
      </trkpt>
      <trkpt lat="47.25169" lon="6.35636">
        <ele>444</ele>
        <time>2018-08-16T15:14:56Z</time>
      </trkpt>
      <trkpt lat="47.2517" lon="6.35674">
        <ele>445</ele>
        <time>2018-08-16T15:14:58Z</time>
      </trkpt>
      <trkpt lat="47.25171" lon="6.35714">
        <ele>445</ele>
        <time>2018-08-16T15:15:00Z</time>
      </trkpt>
      <trkpt lat="47.25172" lon="6.35734">
        <ele>446</ele>
        <time>2018-08-16T15:15:01Z</time>
      </trkpt>
      <trkpt lat="47.25174" lon="6.35754">
        <ele>447</ele>
        <time>2018-08-16T15:15:02Z</time>
      </trkpt>
      <trkpt lat="47.25176" lon="6.3582">
        <ele>447</ele>
        <time>2018-08-16T15:15:05Z</time>
      </trkpt>
      <trkpt lat="47.25176" lon="6.36043">
        <ele>457</ele>
        <time>2018-08-16T15:15:16Z</time>
      </trkpt>
      <trkpt lat="47.25164" lon="6.36109">
        <ele>458</ele>
        <time>2018-08-16T15:15:20Z</time>
      </trkpt>
      <trkpt lat="47.2516" lon="6.36135">
        <ele>460</ele>
        <time>2018-08-16T15:15:22Z</time>
      </trkpt>
      <trkpt lat="47.25159" lon="6.36145">
        <ele>460</ele>
        <time>2018-08-16T15:15:23Z</time>
      </trkpt>
      <trkpt lat="47.25158" lon="6.36154">
        <ele>460</ele>
        <time>2018-08-16T15:15:24Z</time>
      </trkpt>
      <trkpt lat="47.25158" lon="6.36161">
        <ele>460</ele>
        <time>2018-08-16T15:15:25Z</time>
      </trkpt>
      <trkpt lat="47.25163" lon="6.36169">
        <ele>461</ele>
        <time>2018-08-16T15:15:27Z</time>
      </trkpt>
      <trkpt lat="47.25169" lon="6.36169">
        <ele>461</ele>
        <time>2018-08-16T15:15:28Z</time>
      </trkpt>
      <trkpt lat="47.25173" lon="6.36158">
        <ele>461</ele>
        <time>2018-08-16T15:15:30Z</time>
      </trkpt>
      <trkpt lat="47.25182" lon="6.36083">
        <ele>462</ele>
        <time>2018-08-16T15:15:36Z</time>
      </trkpt>
      <trkpt lat="47.25192" lon="6.36039">
        <ele>461</ele>
        <time>2018-08-16T15:15:39Z</time>
      </trkpt>
      <trkpt lat="47.25195" lon="6.36024">
        <ele>461</ele>
        <time>2018-08-16T15:15:40Z</time>
      </trkpt>
      <trkpt lat="47.25197" lon="6.36007">
        <ele>461</ele>
        <time>2018-08-16T15:15:41Z</time>
      </trkpt>
      <trkpt lat="47.25196" lon="6.3599">
        <ele>461</ele>
        <time>2018-08-16T15:15:42Z</time>
      </trkpt>
      <trkpt lat="47.25199" lon="6.35972">
        <ele>463</ele>
        <time>2018-08-16T15:15:43Z</time>
      </trkpt>
      <trkpt lat="47.25201" lon="6.35917">
        <ele>464</ele>
        <time>2018-08-16T15:15:46Z</time>
      </trkpt>
      <trkpt lat="47.25202" lon="6.35883">
        <ele>468</ele>
        <time>2018-08-16T15:15:48Z</time>
      </trkpt>
      <trkpt lat="47.25207" lon="6.35805">
        <ele>471</ele>
        <time>2018-08-16T15:15:54Z</time>
      </trkpt>
      <trkpt lat="47.2521" lon="6.35799">
        <ele>472</ele>
        <time>2018-08-16T15:15:55Z</time>
      </trkpt>
      <trkpt lat="47.25216" lon="6.35793">
        <ele>472</ele>
        <time>2018-08-16T15:15:57Z</time>
      </trkpt>
      <trkpt lat="47.25221" lon="6.358">
        <ele>473</ele>
        <time>2018-08-16T15:15:59Z</time>
      </trkpt>
      <trkpt lat="47.25219" lon="6.3582">
        <ele>476</ele>
        <time>2018-08-16T15:16:01Z</time>
      </trkpt>
      <trkpt lat="47.2522" lon="6.35841">
        <ele>476</ele>
        <time>2018-08-16T15:16:03Z</time>
      </trkpt>
      <trkpt lat="47.25222" lon="6.35851">
        <ele>476</ele>
        <time>2018-08-16T15:16:04Z</time>
      </trkpt>
      <trkpt lat="47.25221" lon="6.35893">
        <ele>476</ele>
        <time>2018-08-16T15:16:07Z</time>
      </trkpt>
      <trkpt lat="47.25222" lon="6.35939">
        <ele>477</ele>
        <time>2018-08-16T15:16:10Z</time>
      </trkpt>
      <trkpt lat="47.25225" lon="6.35969">
        <ele>476</ele>
        <time>2018-08-16T15:16:12Z</time>
      </trkpt>
      <trkpt lat="47.25225" lon="6.35985">
        <ele>477</ele>
        <time>2018-08-16T15:16:13Z</time>
      </trkpt>
      <trkpt lat="47.25227" lon="6.35999">
        <ele>472</ele>
        <time>2018-08-16T15:16:14Z</time>
      </trkpt>
      <trkpt lat="47.25227" lon="6.36014">
        <ele>471</ele>
        <time>2018-08-16T15:16:15Z</time>
      </trkpt>
      <trkpt lat="47.25226" lon="6.36031">
        <ele>472</ele>
        <time>2018-08-16T15:16:16Z</time>
      </trkpt>
      <trkpt lat="47.25219" lon="6.36091">
        <ele>476</ele>
        <time>2018-08-16T15:16:20Z</time>
      </trkpt>
      <trkpt lat="47.25211" lon="6.36118">
        <ele>476</ele>
        <time>2018-08-16T15:16:22Z</time>
      </trkpt>
      <trkpt lat="47.25207" lon="6.36138">
        <ele>479</ele>
        <time>2018-08-16T15:16:24Z</time>
      </trkpt>
      <trkpt lat="47.25202" lon="6.36179">
        <ele>485</ele>
        <time>2018-08-16T15:16:30Z</time>
      </trkpt>
      <trkpt lat="47.25202" lon="6.36186">
        <ele>488</ele>
        <time>2018-08-16T15:16:34Z</time>
      </trkpt>
      <trkpt lat="47.25201" lon="6.36193">
        <ele>491</ele>
        <time>2018-08-16T15:16:44Z</time>
      </trkpt>
      <trkpt lat="47.25205" lon="6.36201">
        <ele>492</ele>
        <time>2018-08-16T15:16:46Z</time>
      </trkpt>
      <trkpt lat="47.25207" lon="6.3621">
        <ele>492</ele>
        <time>2018-08-16T15:16:47Z</time>
      </trkpt>
      <trkpt lat="47.25206" lon="6.3622">
        <ele>493</ele>
        <time>2018-08-16T15:16:48Z</time>
      </trkpt>
      <trkpt lat="47.25207" lon="6.36228">
        <ele>491</ele>
        <time>2018-08-16T15:16:49Z</time>
      </trkpt>
      <trkpt lat="47.25206" lon="6.36238">
        <ele>491</ele>
        <time>2018-08-16T15:16:50Z</time>
      </trkpt>
      <trkpt lat="47.25204" lon="6.36249">
        <ele>493</ele>
        <time>2018-08-16T15:16:51Z</time>
      </trkpt>
      <trkpt lat="47.25202" lon="6.3626">
        <ele>493</ele>
        <time>2018-08-16T15:16:52Z</time>
      </trkpt>
      <trkpt lat="47.25195" lon="6.36281">
        <ele>493</ele>
        <time>2018-08-16T15:16:54Z</time>
      </trkpt>
      <trkpt lat="47.25189" lon="6.36301">
        <ele>495</ele>
        <time>2018-08-16T15:16:56Z</time>
      </trkpt>
      <trkpt lat="47.25186" lon="6.3632">
        <ele>496</ele>
        <time>2018-08-16T15:16:58Z</time>
      </trkpt>
      <trkpt lat="47.25185" lon="6.36327">
        <ele>496</ele>
        <time>2018-08-16T15:16:59Z</time>
      </trkpt>
      <trkpt lat="47.2518" lon="6.36331">
        <ele>496</ele>
        <time>2018-08-16T15:17:00Z</time>
      </trkpt>
      <trkpt lat="47.25174" lon="6.36336">
        <ele>496</ele>
        <time>2018-08-16T15:17:01Z</time>
      </trkpt>
      <trkpt lat="47.25167" lon="6.36341">
        <ele>496</ele>
        <time>2018-08-16T15:17:02Z</time>
      </trkpt>
      <trkpt lat="47.25153" lon="6.36354">
        <ele>496</ele>
        <time>2018-08-16T15:17:04Z</time>
      </trkpt>
      <trkpt lat="47.25146" lon="6.36364">
        <ele>496</ele>
        <time>2018-08-16T15:17:05Z</time>
      </trkpt>
      <trkpt lat="47.25139" lon="6.36374">
        <ele>497</ele>
        <time>2018-08-16T15:17:06Z</time>
      </trkpt>
      <trkpt lat="47.25133" lon="6.36385">
        <ele>496</ele>
        <time>2018-08-16T15:17:07Z</time>
      </trkpt>
      <trkpt lat="47.25127" lon="6.36397">
        <ele>497</ele>
        <time>2018-08-16T15:17:08Z</time>
      </trkpt>
      <trkpt lat="47.25119" lon="6.3642">
        <ele>498</ele>
        <time>2018-08-16T15:17:10Z</time>
      </trkpt>
      <trkpt lat="47.2512" lon="6.36434">
        <ele>500</ele>
        <time>2018-08-16T15:17:11Z</time>
      </trkpt>
      <trkpt lat="47.2512" lon="6.36448">
        <ele>500</ele>
        <time>2018-08-16T15:17:12Z</time>
      </trkpt>
      <trkpt lat="47.25122" lon="6.36461">
        <ele>502</ele>
        <time>2018-08-16T15:17:13Z</time>
      </trkpt>
      <trkpt lat="47.25125" lon="6.36487">
        <ele>502</ele>
        <time>2018-08-16T15:17:15Z</time>
      </trkpt>
      <trkpt lat="47.25123" lon="6.36501">
        <ele>503</ele>
        <time>2018-08-16T15:17:16Z</time>
      </trkpt>
      <trkpt lat="47.25119" lon="6.36513">
        <ele>504</ele>
        <time>2018-08-16T15:17:17Z</time>
      </trkpt>
      <trkpt lat="47.25105" lon="6.36535">
        <ele>504</ele>
        <time>2018-08-16T15:17:19Z</time>
      </trkpt>
      <trkpt lat="47.25092" lon="6.36557">
        <ele>506</ele>
        <time>2018-08-16T15:17:21Z</time>
      </trkpt>
      <trkpt lat="47.25088" lon="6.36582">
        <ele>505</ele>
        <time>2018-08-16T15:17:23Z</time>
      </trkpt>
      <trkpt lat="47.25088" lon="6.36594">
        <ele>506</ele>
        <time>2018-08-16T15:17:24Z</time>
      </trkpt>
      <trkpt lat="47.25093" lon="6.36605">
        <ele>508</ele>
        <time>2018-08-16T15:17:25Z</time>
      </trkpt>
      <trkpt lat="47.25099" lon="6.36617">
        <ele>508</ele>
        <time>2018-08-16T15:17:26Z</time>
      </trkpt>
      <trkpt lat="47.25101" lon="6.36631">
        <ele>507</ele>
        <time>2018-08-16T15:17:27Z</time>
      </trkpt>
      <trkpt lat="47.25116" lon="6.36669">
        <ele>508</ele>
        <time>2018-08-16T15:17:30Z</time>
      </trkpt>
      <trkpt lat="47.25122" lon="6.36681">
        <ele>507</ele>
        <time>2018-08-16T15:17:31Z</time>
      </trkpt>
      <trkpt lat="47.25131" lon="6.36694">
        <ele>505</ele>
        <time>2018-08-16T15:17:32Z</time>
      </trkpt>
      <trkpt lat="47.25139" lon="6.36701">
        <ele>506</ele>
        <time>2018-08-16T15:17:33Z</time>
      </trkpt>
      <trkpt lat="47.25162" lon="6.3672">
        <ele>506</ele>
        <time>2018-08-16T15:17:36Z</time>
      </trkpt>
      <trkpt lat="47.25176" lon="6.36742">
        <ele>509</ele>
        <time>2018-08-16T15:17:39Z</time>
      </trkpt>
      <trkpt lat="47.25178" lon="6.36749">
        <ele>509</ele>
        <time>2018-08-16T15:17:40Z</time>
      </trkpt>
      <trkpt lat="47.25176" lon="6.36761">
        <ele>509</ele>
        <time>2018-08-16T15:17:41Z</time>
      </trkpt>
      <trkpt lat="47.25172" lon="6.3677">
        <ele>509</ele>
        <time>2018-08-16T15:17:42Z</time>
      </trkpt>
      <trkpt lat="47.25168" lon="6.3678">
        <ele>509</ele>
        <time>2018-08-16T15:17:44Z</time>
      </trkpt>
      <trkpt lat="47.25157" lon="6.36796">
        <ele>505</ele>
        <time>2018-08-16T15:17:56Z</time>
      </trkpt>
      <trkpt lat="47.25149" lon="6.3681">
        <ele>507</ele>
        <time>2018-08-16T15:17:58Z</time>
      </trkpt>
      <trkpt lat="47.25147" lon="6.36816">
        <ele>507</ele>
        <time>2018-08-16T15:17:59Z</time>
      </trkpt>
      <trkpt lat="47.25144" lon="6.36828">
        <ele>509</ele>
        <time>2018-08-16T15:18:01Z</time>
      </trkpt>
      <trkpt lat="47.25144" lon="6.36836">
        <ele>508</ele>
        <time>2018-08-16T15:18:02Z</time>
      </trkpt>
      <trkpt lat="47.25141" lon="6.36846">
        <ele>508</ele>
        <time>2018-08-16T15:18:03Z</time>
      </trkpt>
      <trkpt lat="47.25143" lon="6.36857">
        <ele>509</ele>
        <time>2018-08-16T15:18:04Z</time>
      </trkpt>
      <trkpt lat="47.25142" lon="6.36869">
        <ele>510</ele>
        <time>2018-08-16T15:18:05Z</time>
      </trkpt>
      <trkpt lat="47.25148" lon="6.36904">
        <ele>510</ele>
        <time>2018-08-16T15:18:08Z</time>
      </trkpt>
      <trkpt lat="47.25153" lon="6.36931">
        <ele>512</ele>
        <time>2018-08-16T15:18:10Z</time>
      </trkpt>
      <trkpt lat="47.25155" lon="6.36943">
        <ele>512</ele>
        <time>2018-08-16T15:18:11Z</time>
      </trkpt>
      <trkpt lat="47.25157" lon="6.36956">
        <ele>512</ele>
        <time>2018-08-16T15:18:12Z</time>
      </trkpt>
      <trkpt lat="47.2516" lon="6.36968">
        <ele>513</ele>
        <time>2018-08-16T15:18:13Z</time>
      </trkpt>
      <trkpt lat="47.25164" lon="6.36995">
        <ele>513</ele>
        <time>2018-08-16T15:18:15Z</time>
      </trkpt>
      <trkpt lat="47.25188" lon="6.37037">
        <ele>519</ele>
        <time>2018-08-16T15:18:19Z</time>
      </trkpt>
      <trkpt lat="47.2519" lon="6.37049">
        <ele>519</ele>
        <time>2018-08-16T15:18:20Z</time>
      </trkpt>
      <trkpt lat="47.25185" lon="6.37077">
        <ele>522</ele>
        <time>2018-08-16T15:18:22Z</time>
      </trkpt>
      <trkpt lat="47.25179" lon="6.37086">
        <ele>522</ele>
        <time>2018-08-16T15:18:23Z</time>
      </trkpt>
      <trkpt lat="47.25173" lon="6.37095">
        <ele>523</ele>
        <time>2018-08-16T15:18:24Z</time>
      </trkpt>
      <trkpt lat="47.25165" lon="6.37101">
        <ele>525</ele>
        <time>2018-08-16T15:18:25Z</time>
      </trkpt>
      <trkpt lat="47.25155" lon="6.37105">
        <ele>525</ele>
        <time>2018-08-16T15:18:26Z</time>
      </trkpt>
      <trkpt lat="47.25148" lon="6.37103">
        <ele>526</ele>
        <time>2018-08-16T15:18:27Z</time>
      </trkpt>
      <trkpt lat="47.2514" lon="6.37102">
        <ele>526</ele>
        <time>2018-08-16T15:18:28Z</time>
      </trkpt>
      <trkpt lat="47.25136" lon="6.37089">
        <ele>529</ele>
        <time>2018-08-16T15:18:29Z</time>
      </trkpt>
      <trkpt lat="47.25127" lon="6.3707">
        <ele>530</ele>
        <time>2018-08-16T15:18:31Z</time>
      </trkpt>
      <trkpt lat="47.25122" lon="6.3706">
        <ele>529</ele>
        <time>2018-08-16T15:18:32Z</time>
      </trkpt>
      <trkpt lat="47.25117" lon="6.37048">
        <ele>530</ele>
        <time>2018-08-16T15:18:33Z</time>
      </trkpt>
      <trkpt lat="47.25064" lon="6.36956">
        <ele>533</ele>
        <time>2018-08-16T15:18:40Z</time>
      </trkpt>
      <trkpt lat="47.25054" lon="6.36946">
        <ele>534</ele>
        <time>2018-08-16T15:18:41Z</time>
      </trkpt>
      <trkpt lat="47.25022" lon="6.3692">
        <ele>532</ele>
        <time>2018-08-16T15:18:44Z</time>
      </trkpt>
      <trkpt lat="47.24996" lon="6.36908">
        <ele>533</ele>
        <time>2018-08-16T15:18:46Z</time>
      </trkpt>
      <trkpt lat="47.24897" lon="6.36869">
        <ele>530</ele>
        <time>2018-08-16T15:18:53Z</time>
      </trkpt>
      <trkpt lat="47.2488" lon="6.36863">
        <ele>531</ele>
        <time>2018-08-16T15:18:54Z</time>
      </trkpt>
      <trkpt lat="47.24805" lon="6.36838">
        <ele>534</ele>
        <time>2018-08-16T15:18:59Z</time>
      </trkpt>
      <trkpt lat="47.24779" lon="6.36822">
        <ele>533</ele>
        <time>2018-08-16T15:19:01Z</time>
      </trkpt>
      <trkpt lat="47.24771" lon="6.36811">
        <ele>532</ele>
        <time>2018-08-16T15:19:02Z</time>
      </trkpt>
      <trkpt lat="47.24754" lon="6.36784">
        <ele>534</ele>
        <time>2018-08-16T15:19:04Z</time>
      </trkpt>
      <trkpt lat="47.2474" lon="6.36757">
        <ele>531</ele>
        <time>2018-08-16T15:19:06Z</time>
      </trkpt>
      <trkpt lat="47.24719" lon="6.36711">
        <ele>532</ele>
        <time>2018-08-16T15:19:09Z</time>
      </trkpt>
      <trkpt lat="47.24698" lon="6.36668">
        <ele>535</ele>
        <time>2018-08-16T15:19:12Z</time>
      </trkpt>
      <trkpt lat="47.2468" lon="6.36642">
        <ele>536</ele>
        <time>2018-08-16T15:19:14Z</time>
      </trkpt>
      <trkpt lat="47.24668" lon="6.3663">
        <ele>535</ele>
        <time>2018-08-16T15:19:15Z</time>
      </trkpt>
      <trkpt lat="47.24658" lon="6.36621">
        <ele>535</ele>
        <time>2018-08-16T15:19:16Z</time>
      </trkpt>
      <trkpt lat="47.24637" lon="6.36602">
        <ele>536</ele>
        <time>2018-08-16T15:19:18Z</time>
      </trkpt>
      <trkpt lat="47.24603" lon="6.36574">
        <ele>536</ele>
        <time>2018-08-16T15:19:21Z</time>
      </trkpt>
      <trkpt lat="47.24592" lon="6.36564">
        <ele>537</ele>
        <time>2018-08-16T15:19:22Z</time>
      </trkpt>
      <trkpt lat="47.24582" lon="6.36554">
        <ele>536</ele>
        <time>2018-08-16T15:19:23Z</time>
      </trkpt>
      <trkpt lat="47.24572" lon="6.36545">
        <ele>537</ele>
        <time>2018-08-16T15:19:24Z</time>
      </trkpt>
      <trkpt lat="47.24561" lon="6.36536">
        <ele>538</ele>
        <time>2018-08-16T15:19:25Z</time>
      </trkpt>
      <trkpt lat="47.24548" lon="6.36527">
        <ele>536</ele>
        <time>2018-08-16T15:19:26Z</time>
      </trkpt>
      <trkpt lat="47.24536" lon="6.36518">
        <ele>536</ele>
        <time>2018-08-16T15:19:27Z</time>
      </trkpt>
      <trkpt lat="47.24513" lon="6.36498">
        <ele>535</ele>
        <time>2018-08-16T15:19:29Z</time>
      </trkpt>
      <trkpt lat="47.24474" lon="6.36468">
        <ele>535</ele>
        <time>2018-08-16T15:19:32Z</time>
      </trkpt>
      <trkpt lat="47.2445" lon="6.36447">
        <ele>537</ele>
        <time>2018-08-16T15:19:34Z</time>
      </trkpt>
      <trkpt lat="47.24158" lon="6.36181">
        <ele>541</ele>
        <time>2018-08-16T15:19:57Z</time>
      </trkpt>
      <trkpt lat="47.24142" lon="6.36172">
        <ele>539</ele>
        <time>2018-08-16T15:19:58Z</time>
      </trkpt>
      <trkpt lat="47.24128" lon="6.36163">
        <ele>539</ele>
        <time>2018-08-16T15:19:59Z</time>
      </trkpt>
      <trkpt lat="47.24056" lon="6.36121">
        <ele>538</ele>
        <time>2018-08-16T15:20:04Z</time>
      </trkpt>
      <trkpt lat="47.24041" lon="6.36112">
        <ele>537</ele>
        <time>2018-08-16T15:20:05Z</time>
      </trkpt>
      <trkpt lat="47.23927" lon="6.3603">
        <ele>537</ele>
        <time>2018-08-16T15:20:13Z</time>
      </trkpt>
      <trkpt lat="47.23913" lon="6.36021">
        <ele>536</ele>
        <time>2018-08-16T15:20:14Z</time>
      </trkpt>
      <trkpt lat="47.23899" lon="6.36011">
        <ele>536</ele>
        <time>2018-08-16T15:20:15Z</time>
      </trkpt>
      <trkpt lat="47.23886" lon="6.36001">
        <ele>536</ele>
        <time>2018-08-16T15:20:16Z</time>
      </trkpt>
      <trkpt lat="47.23837" lon="6.35964">
        <ele>536</ele>
        <time>2018-08-16T15:20:20Z</time>
      </trkpt>
      <trkpt lat="47.23825" lon="6.35955">
        <ele>535</ele>
        <time>2018-08-16T15:20:21Z</time>
      </trkpt>
      <trkpt lat="47.23813" lon="6.35947">
        <ele>535</ele>
        <time>2018-08-16T15:20:22Z</time>
      </trkpt>
      <trkpt lat="47.23774" lon="6.35923">
        <ele>532</ele>
        <time>2018-08-16T15:20:26Z</time>
      </trkpt>
      <trkpt lat="47.23769" lon="6.35919">
        <ele>532</ele>
        <time>2018-08-16T15:20:27Z</time>
      </trkpt>
      <trkpt lat="47.23755" lon="6.3591">
        <ele>534</ele>
        <time>2018-08-16T15:22:13Z</time>
      </trkpt>
      <trkpt lat="47.23745" lon="6.35904">
        <ele>533</ele>
        <time>2018-08-16T15:22:15Z</time>
      </trkpt>
      <trkpt lat="47.2373" lon="6.35897">
        <ele>534</ele>
        <time>2018-08-16T15:22:17Z</time>
      </trkpt>
      <trkpt lat="47.23723" lon="6.35894">
        <ele>533</ele>
        <time>2018-08-16T15:22:18Z</time>
      </trkpt>
      <trkpt lat="47.23708" lon="6.3589">
        <ele>534</ele>
        <time>2018-08-16T15:22:20Z</time>
      </trkpt>
      <trkpt lat="47.23686" lon="6.35882">
        <ele>535</ele>
        <time>2018-08-16T15:22:23Z</time>
      </trkpt>
      <trkpt lat="47.2368" lon="6.35877">
        <ele>535</ele>
        <time>2018-08-16T15:22:24Z</time>
      </trkpt>
      <trkpt lat="47.23667" lon="6.35865">
        <ele>535</ele>
        <time>2018-08-16T15:22:26Z</time>
      </trkpt>
      <trkpt lat="47.23654" lon="6.35849">
        <ele>534</ele>
        <time>2018-08-16T15:22:28Z</time>
      </trkpt>
      <trkpt lat="47.2363" lon="6.35798">
        <ele>533</ele>
        <time>2018-08-16T15:22:33Z</time>
      </trkpt>
      <trkpt lat="47.23624" lon="6.3579">
        <ele>532</ele>
        <time>2018-08-16T15:22:34Z</time>
      </trkpt>
      <trkpt lat="47.23618" lon="6.35785">
        <ele>533</ele>
        <time>2018-08-16T15:22:35Z</time>
      </trkpt>
      <trkpt lat="47.23603" lon="6.35777">
        <ele>533</ele>
        <time>2018-08-16T15:22:37Z</time>
      </trkpt>
      <trkpt lat="47.23596" lon="6.35776">
        <ele>532</ele>
        <time>2018-08-16T15:22:38Z</time>
      </trkpt>
      <trkpt lat="47.23588" lon="6.35775">
        <ele>532</ele>
        <time>2018-08-16T15:22:39Z</time>
      </trkpt>
      <trkpt lat="47.2358" lon="6.35774">
        <ele>532</ele>
        <time>2018-08-16T15:22:40Z</time>
      </trkpt>
      <trkpt lat="47.23545" lon="6.35782">
        <ele>532</ele>
        <time>2018-08-16T15:22:44Z</time>
      </trkpt>
      <trkpt lat="47.23518" lon="6.35782">
        <ele>536</ele>
        <time>2018-08-16T15:22:47Z</time>
      </trkpt>
      <trkpt lat="47.23507" lon="6.3578">
        <ele>535</ele>
        <time>2018-08-16T15:22:48Z</time>
      </trkpt>
      <trkpt lat="47.2345" lon="6.35764">
        <ele>537</ele>
        <time>2018-08-16T15:22:54Z</time>
      </trkpt>
      <trkpt lat="47.23441" lon="6.35759">
        <ele>539</ele>
        <time>2018-08-16T15:22:55Z</time>
      </trkpt>
      <trkpt lat="47.23415" lon="6.35742">
        <ele>539</ele>
        <time>2018-08-16T15:22:58Z</time>
      </trkpt>
      <trkpt lat="47.23398" lon="6.35728">
        <ele>541</ele>
        <time>2018-08-16T15:23:00Z</time>
      </trkpt>
      <trkpt lat="47.2338" lon="6.35709">
        <ele>541</ele>
        <time>2018-08-16T15:23:02Z</time>
      </trkpt>
      <trkpt lat="47.23344" lon="6.3567">
        <ele>544</ele>
        <time>2018-08-16T15:23:06Z</time>
      </trkpt>
      <trkpt lat="47.23336" lon="6.3566">
        <ele>544</ele>
        <time>2018-08-16T15:23:07Z</time>
      </trkpt>
      <trkpt lat="47.23327" lon="6.35649">
        <ele>544</ele>
        <time>2018-08-16T15:23:08Z</time>
      </trkpt>
      <trkpt lat="47.23318" lon="6.35638">
        <ele>544</ele>
        <time>2018-08-16T15:23:09Z</time>
      </trkpt>
      <trkpt lat="47.23291" lon="6.35601">
        <ele>542</ele>
        <time>2018-08-16T15:23:13Z</time>
      </trkpt>
      <trkpt lat="47.23287" lon="6.35597">
        <ele>544</ele>
        <time>2018-08-16T15:23:14Z</time>
      </trkpt>
      <trkpt lat="47.23283" lon="6.35593">
        <ele>544</ele>
        <time>2018-08-16T15:23:15Z</time>
      </trkpt>
      <trkpt lat="47.23276" lon="6.35591">
        <ele>545</ele>
        <time>2018-08-16T15:23:17Z</time>
      </trkpt>
      <trkpt lat="47.23269" lon="6.35595">
        <ele>546</ele>
        <time>2018-08-16T15:23:22Z</time>
      </trkpt>
      <trkpt lat="47.23266" lon="6.35614">
        <ele>547</ele>
        <time>2018-08-16T15:23:25Z</time>
      </trkpt>
      <trkpt lat="47.23264" lon="6.35622">
        <ele>546</ele>
        <time>2018-08-16T15:23:26Z</time>
      </trkpt>
      <trkpt lat="47.23255" lon="6.35651">
        <ele>548</ele>
        <time>2018-08-16T15:23:29Z</time>
      </trkpt>
      <trkpt lat="47.2325" lon="6.35662">
        <ele>548</ele>
        <time>2018-08-16T15:23:30Z</time>
      </trkpt>
      <trkpt lat="47.23241" lon="6.35673">
        <ele>547</ele>
        <time>2018-08-16T15:23:31Z</time>
      </trkpt>
      <trkpt lat="47.23227" lon="6.3569">
        <ele>548</ele>
        <time>2018-08-16T15:23:33Z</time>
      </trkpt>
      <trkpt lat="47.23219" lon="6.35695">
        <ele>550</ele>
        <time>2018-08-16T15:23:34Z</time>
      </trkpt>
      <trkpt lat="47.23197" lon="6.35704">
        <ele>550</ele>
        <time>2018-08-16T15:23:36Z</time>
      </trkpt>
      <trkpt lat="47.23083" lon="6.35704">
        <ele>556</ele>
        <time>2018-08-16T15:23:44Z</time>
      </trkpt>
      <trkpt lat="47.2305" lon="6.35706">
        <ele>554</ele>
        <time>2018-08-16T15:23:46Z</time>
      </trkpt>
      <trkpt lat="47.22879" lon="6.35763">
        <ele>555</ele>
        <time>2018-08-16T15:23:57Z</time>
      </trkpt>
      <trkpt lat="47.22818" lon="6.35795">
        <ele>559</ele>
        <time>2018-08-16T15:24:01Z</time>
      </trkpt>
      <trkpt lat="47.2272" lon="6.35817">
        <ele>562</ele>
        <time>2018-08-16T15:24:07Z</time>
      </trkpt>
      <trkpt lat="47.22705" lon="6.3582">
        <ele>564</ele>
        <time>2018-08-16T15:24:08Z</time>
      </trkpt>
      <trkpt lat="47.22647" lon="6.35835">
        <ele>565</ele>
        <time>2018-08-16T15:24:12Z</time>
      </trkpt>
      <trkpt lat="47.22633" lon="6.35844">
        <ele>565</ele>
        <time>2018-08-16T15:24:13Z</time>
      </trkpt>
      <trkpt lat="47.22622" lon="6.35853">
        <ele>565</ele>
        <time>2018-08-16T15:24:14Z</time>
      </trkpt>
      <trkpt lat="47.22546" lon="6.35913">
        <ele>568</ele>
        <time>2018-08-16T15:24:20Z</time>
      </trkpt>
      <trkpt lat="47.22531" lon="6.35918">
        <ele>570</ele>
        <time>2018-08-16T15:24:21Z</time>
      </trkpt>
      <trkpt lat="47.22473" lon="6.3593">
        <ele>572</ele>
        <time>2018-08-16T15:24:25Z</time>
      </trkpt>
      <trkpt lat="47.22459" lon="6.35929">
        <ele>574</ele>
        <time>2018-08-16T15:24:26Z</time>
      </trkpt>
      <trkpt lat="47.22431" lon="6.35925">
        <ele>576</ele>
        <time>2018-08-16T15:24:28Z</time>
      </trkpt>
      <trkpt lat="47.22415" lon="6.35922">
        <ele>576</ele>
        <time>2018-08-16T15:24:29Z</time>
      </trkpt>
      <trkpt lat="47.22374" lon="6.35903">
        <ele>578</ele>
        <time>2018-08-16T15:24:32Z</time>
      </trkpt>
      <trkpt lat="47.22336" lon="6.35873">
        <ele>580</ele>
        <time>2018-08-16T15:24:35Z</time>
      </trkpt>
      <trkpt lat="47.22312" lon="6.3585">
        <ele>580</ele>
        <time>2018-08-16T15:24:37Z</time>
      </trkpt>
      <trkpt lat="47.22289" lon="6.35825">
        <ele>582</ele>
        <time>2018-08-16T15:24:39Z</time>
      </trkpt>
      <trkpt lat="47.22276" lon="6.35815">
        <ele>581</ele>
        <time>2018-08-16T15:24:40Z</time>
      </trkpt>
      <trkpt lat="47.22224" lon="6.3577">
        <ele>582</ele>
        <time>2018-08-16T15:24:44Z</time>
      </trkpt>
      <trkpt lat="47.22201" lon="6.35749">
        <ele>581</ele>
        <time>2018-08-16T15:24:46Z</time>
      </trkpt>
      <trkpt lat="47.22186" lon="6.35739">
        <ele>581</ele>
        <time>2018-08-16T15:24:47Z</time>
      </trkpt>
      <trkpt lat="47.22162" lon="6.35732">
        <ele>584</ele>
        <time>2018-08-16T15:24:49Z</time>
      </trkpt>
      <trkpt lat="47.22148" lon="6.3573">
        <ele>585</ele>
        <time>2018-08-16T15:24:50Z</time>
      </trkpt>
      <trkpt lat="47.22136" lon="6.35729">
        <ele>585</ele>
        <time>2018-08-16T15:24:51Z</time>
      </trkpt>
      <trkpt lat="47.22125" lon="6.35732">
        <ele>587</ele>
        <time>2018-08-16T15:24:52Z</time>
      </trkpt>
      <trkpt lat="47.22093" lon="6.35759">
        <ele>588</ele>
        <time>2018-08-16T15:24:55Z</time>
      </trkpt>
      <trkpt lat="47.22083" lon="6.3577">
        <ele>588</ele>
        <time>2018-08-16T15:24:56Z</time>
      </trkpt>
      <trkpt lat="47.2206" lon="6.35816">
        <ele>590</ele>
        <time>2018-08-16T15:24:59Z</time>
      </trkpt>
      <trkpt lat="47.22022" lon="6.35934">
        <ele>602</ele>
        <time>2018-08-16T15:25:05Z</time>
      </trkpt>
      <trkpt lat="47.22006" lon="6.35978">
        <ele>603</ele>
        <time>2018-08-16T15:25:07Z</time>
      </trkpt>
      <trkpt lat="47.21948" lon="6.36182">
        <ele>606</ele>
        <time>2018-08-16T15:25:17Z</time>
      </trkpt>
      <trkpt lat="47.21942" lon="6.36224">
        <ele>607</ele>
        <time>2018-08-16T15:25:19Z</time>
      </trkpt>
      <trkpt lat="47.21941" lon="6.3629">
        <ele>605</ele>
        <time>2018-08-16T15:25:22Z</time>
      </trkpt>
      <trkpt lat="47.21953" lon="6.36353">
        <ele>607</ele>
        <time>2018-08-16T15:25:25Z</time>
      </trkpt>
      <trkpt lat="47.21966" lon="6.36407">
        <ele>609</ele>
        <time>2018-08-16T15:25:28Z</time>
      </trkpt>
      <trkpt lat="47.21968" lon="6.36425">
        <ele>610</ele>
        <time>2018-08-16T15:25:29Z</time>
      </trkpt>
      <trkpt lat="47.21967" lon="6.36458">
        <ele>610</ele>
        <time>2018-08-16T15:25:31Z</time>
      </trkpt>
      <trkpt lat="47.21965" lon="6.36473">
        <ele>610</ele>
        <time>2018-08-16T15:25:32Z</time>
      </trkpt>
      <trkpt lat="47.21962" lon="6.36486">
        <ele>611</ele>
        <time>2018-08-16T15:25:33Z</time>
      </trkpt>
      <trkpt lat="47.21959" lon="6.365">
        <ele>611</ele>
        <time>2018-08-16T15:25:34Z</time>
      </trkpt>
      <trkpt lat="47.21956" lon="6.36513">
        <ele>610</ele>
        <time>2018-08-16T15:25:35Z</time>
      </trkpt>
      <trkpt lat="47.21949" lon="6.36538">
        <ele>611</ele>
        <time>2018-08-16T15:25:37Z</time>
      </trkpt>
      <trkpt lat="47.2194" lon="6.36563">
        <ele>612</ele>
        <time>2018-08-16T15:25:39Z</time>
      </trkpt>
      <trkpt lat="47.21935" lon="6.36573">
        <ele>612</ele>
        <time>2018-08-16T15:25:40Z</time>
      </trkpt>
      <trkpt lat="47.21922" lon="6.36589">
        <ele>613</ele>
        <time>2018-08-16T15:25:42Z</time>
      </trkpt>
      <trkpt lat="47.21916" lon="6.36594">
        <ele>614</ele>
        <time>2018-08-16T15:25:43Z</time>
      </trkpt>
      <trkpt lat="47.21901" lon="6.36605">
        <ele>614</ele>
        <time>2018-08-16T15:25:46Z</time>
      </trkpt>
      <trkpt lat="47.21896" lon="6.36609">
        <ele>614</ele>
        <time>2018-08-16T15:25:47Z</time>
      </trkpt>
      <trkpt lat="47.21891" lon="6.36612">
        <ele>614</ele>
        <time>2018-08-16T15:25:48Z</time>
      </trkpt>
      <trkpt lat="47.21886" lon="6.36616">
        <ele>614</ele>
        <time>2018-08-16T15:25:49Z</time>
      </trkpt>
      <trkpt lat="47.21846" lon="6.36645">
        <ele>615</ele>
        <time>2018-08-16T15:25:55Z</time>
      </trkpt>
      <trkpt lat="47.21838" lon="6.36651">
        <ele>615</ele>
        <time>2018-08-16T15:25:56Z</time>
      </trkpt>
      <trkpt lat="47.21816" lon="6.36669">
        <ele>613</ele>
        <time>2018-08-16T15:25:59Z</time>
      </trkpt>
      <trkpt lat="47.21803" lon="6.36682">
        <ele>613</ele>
        <time>2018-08-16T15:26:01Z</time>
      </trkpt>
      <trkpt lat="47.21792" lon="6.36696">
        <ele>614</ele>
        <time>2018-08-16T15:26:03Z</time>
      </trkpt>
      <trkpt lat="47.21789" lon="6.36701">
        <ele>613</ele>
        <time>2018-08-16T15:26:04Z</time>
      </trkpt>
      <trkpt lat="47.21784" lon="6.36703">
        <ele>612</ele>
        <time>2018-08-16T15:26:05Z</time>
      </trkpt>
      <trkpt lat="47.2178" lon="6.3671">
        <ele>612</ele>
        <time>2018-08-16T15:26:07Z</time>
      </trkpt>
      <trkpt lat="47.21779" lon="6.36709">
        <ele>614</ele>
        <time>2018-08-16T15:26:15Z</time>
      </trkpt>
      <trkpt lat="47.21786" lon="6.36704">
        <ele>613</ele>
        <time>2018-08-16T15:26:24Z</time>
      </trkpt>
      <trkpt lat="47.21791" lon="6.36698">
        <ele>614</ele>
        <time>2018-08-16T15:26:25Z</time>
      </trkpt>
      <trkpt lat="47.21796" lon="6.36693">
        <ele>615</ele>
        <time>2018-08-16T15:26:26Z</time>
      </trkpt>
      <trkpt lat="47.218" lon="6.36686">
        <ele>615</ele>
        <time>2018-08-16T15:26:27Z</time>
      </trkpt>
      <trkpt lat="47.21806" lon="6.36678">
        <ele>615</ele>
        <time>2018-08-16T15:26:28Z</time>
      </trkpt>
      <trkpt lat="47.21813" lon="6.36673">
        <ele>614</ele>
        <time>2018-08-16T15:26:29Z</time>
      </trkpt>
      <trkpt lat="47.21835" lon="6.36655">
        <ele>615</ele>
        <time>2018-08-16T15:26:32Z</time>
      </trkpt>
      <trkpt lat="47.2185" lon="6.36646">
        <ele>614</ele>
        <time>2018-08-16T15:26:34Z</time>
      </trkpt>
      <trkpt lat="47.21858" lon="6.36641">
        <ele>613</ele>
        <time>2018-08-16T15:26:35Z</time>
      </trkpt>
      <trkpt lat="47.21874" lon="6.3663">
        <ele>613</ele>
        <time>2018-08-16T15:26:37Z</time>
      </trkpt>
      <trkpt lat="47.21896" lon="6.36614">
        <ele>614</ele>
        <time>2018-08-16T15:26:40Z</time>
      </trkpt>
      <trkpt lat="47.2192" lon="6.36596">
        <ele>614</ele>
        <time>2018-08-16T15:26:44Z</time>
      </trkpt>
      <trkpt lat="47.21926" lon="6.36595">
        <ele>614</ele>
        <time>2018-08-16T15:26:45Z</time>
      </trkpt>
      <trkpt lat="47.21931" lon="6.36596">
        <ele>614</ele>
        <time>2018-08-16T15:26:46Z</time>
      </trkpt>
      <trkpt lat="47.21937" lon="6.366">
        <ele>614</ele>
        <time>2018-08-16T15:26:47Z</time>
      </trkpt>
      <trkpt lat="47.21943" lon="6.36605">
        <ele>614</ele>
        <time>2018-08-16T15:26:48Z</time>
      </trkpt>
      <trkpt lat="47.21957" lon="6.36614">
        <ele>614</ele>
        <time>2018-08-16T15:26:50Z</time>
      </trkpt>
      <trkpt lat="47.21964" lon="6.36618">
        <ele>614</ele>
        <time>2018-08-16T15:26:51Z</time>
      </trkpt>
      <trkpt lat="47.21972" lon="6.3662">
        <ele>615</ele>
        <time>2018-08-16T15:26:52Z</time>
      </trkpt>
      <trkpt lat="47.21987" lon="6.36622">
        <ele>615</ele>
        <time>2018-08-16T15:26:54Z</time>
      </trkpt>
      <trkpt lat="47.22011" lon="6.36622">
        <ele>617</ele>
        <time>2018-08-16T15:26:57Z</time>
      </trkpt>
      <trkpt lat="47.22019" lon="6.36622">
        <ele>616</ele>
        <time>2018-08-16T15:26:58Z</time>
      </trkpt>
      <trkpt lat="47.22107" lon="6.36621">
        <ele>614</ele>
        <time>2018-08-16T15:27:09Z</time>
      </trkpt>
      <trkpt lat="47.22124" lon="6.36627">
        <ele>616</ele>
        <time>2018-08-16T15:27:11Z</time>
      </trkpt>
      <trkpt lat="47.22142" lon="6.36637">
        <ele>615</ele>
        <time>2018-08-16T15:27:13Z</time>
      </trkpt>
      <trkpt lat="47.22151" lon="6.36643">
        <ele>614</ele>
        <time>2018-08-16T15:27:14Z</time>
      </trkpt>
      <trkpt lat="47.22159" lon="6.36649">
        <ele>615</ele>
        <time>2018-08-16T15:27:15Z</time>
      </trkpt>
      <trkpt lat="47.22173" lon="6.36663">
        <ele>615</ele>
        <time>2018-08-16T15:27:17Z</time>
      </trkpt>
      <trkpt lat="47.22181" lon="6.36669">
        <ele>614</ele>
        <time>2018-08-16T15:27:18Z</time>
      </trkpt>
      <trkpt lat="47.22193" lon="6.36684">
        <ele>614</ele>
        <time>2018-08-16T15:27:20Z</time>
      </trkpt>
      <trkpt lat="47.22198" lon="6.36692">
        <ele>613</ele>
        <time>2018-08-16T15:27:21Z</time>
      </trkpt>
      <trkpt lat="47.22201" lon="6.36701">
        <ele>614</ele>
        <time>2018-08-16T15:27:22Z</time>
      </trkpt>
      <trkpt lat="47.22204" lon="6.36709">
        <ele>614</ele>
        <time>2018-08-16T15:27:23Z</time>
      </trkpt>
      <trkpt lat="47.22207" lon="6.36717">
        <ele>612</ele>
        <time>2018-08-16T15:27:24Z</time>
      </trkpt>
      <trkpt lat="47.22215" lon="6.36731">
        <ele>611</ele>
        <time>2018-08-16T15:27:26Z</time>
      </trkpt>
      <trkpt lat="47.2222" lon="6.36736">
        <ele>611</ele>
        <time>2018-08-16T15:27:27Z</time>
      </trkpt>
      <trkpt lat="47.22226" lon="6.36742">
        <ele>611</ele>
        <time>2018-08-16T15:27:28Z</time>
      </trkpt>
      <trkpt lat="47.22238" lon="6.36754">
        <ele>609</ele>
        <time>2018-08-16T15:27:30Z</time>
      </trkpt>
      <trkpt lat="47.22352" lon="6.36863">
        <ele>602</ele>
        <time>2018-08-16T15:27:43Z</time>
      </trkpt>
      <trkpt lat="47.22371" lon="6.36885">
        <ele>599</ele>
        <time>2018-08-16T15:27:45Z</time>
      </trkpt>
      <trkpt lat="47.2239" lon="6.36908">
        <ele>598</ele>
        <time>2018-08-16T15:27:47Z</time>
      </trkpt>
      <trkpt lat="47.224" lon="6.3692">
        <ele>596</ele>
        <time>2018-08-16T15:27:48Z</time>
      </trkpt>
      <trkpt lat="47.22409" lon="6.36933">
        <ele>597</ele>
        <time>2018-08-16T15:27:49Z</time>
      </trkpt>
      <trkpt lat="47.22417" lon="6.36946">
        <ele>595</ele>
        <time>2018-08-16T15:27:50Z</time>
      </trkpt>
      <trkpt lat="47.22522" lon="6.37157">
        <ele>586</ele>
        <time>2018-08-16T15:28:05Z</time>
      </trkpt>
      <trkpt lat="47.22544" lon="6.37222">
        <ele>581</ele>
        <time>2018-08-16T15:28:13Z</time>
      </trkpt>
      <trkpt lat="47.22547" lon="6.37227">
        <ele>581</ele>
        <time>2018-08-16T15:28:15Z</time>
      </trkpt>
      <trkpt lat="47.22551" lon="6.37233">
        <ele>581</ele>
        <time>2018-08-16T15:28:17Z</time>
      </trkpt>
      <trkpt lat="47.2256" lon="6.37244">
        <ele>582</ele>
        <time>2018-08-16T15:28:21Z</time>
      </trkpt>
      <trkpt lat="47.22564" lon="6.37248">
        <ele>582</ele>
        <time>2018-08-16T15:28:22Z</time>
      </trkpt>
      <trkpt lat="47.22567" lon="6.37252">
        <ele>582</ele>
        <time>2018-08-16T15:28:23Z</time>
      </trkpt>
      <trkpt lat="47.22574" lon="6.3726">
        <ele>582</ele>
        <time>2018-08-16T15:28:25Z</time>
      </trkpt>
      <trkpt lat="47.2258" lon="6.37266">
        <ele>582</ele>
        <time>2018-08-16T15:28:27Z</time>
      </trkpt>
      <trkpt lat="47.22585" lon="6.37269">
        <ele>581</ele>
        <time>2018-08-16T15:28:29Z</time>
      </trkpt>
      <trkpt lat="47.22589" lon="6.37275">
        <ele>579</ele>
        <time>2018-08-16T15:29:16Z</time>
      </trkpt>
      <trkpt lat="47.22599" lon="6.37288">
        <ele>579</ele>
        <time>2018-08-16T15:29:20Z</time>
      </trkpt>
      <trkpt lat="47.22606" lon="6.37297">
        <ele>579</ele>
        <time>2018-08-16T15:29:22Z</time>
      </trkpt>
      <trkpt lat="47.22612" lon="6.37301">
        <ele>579</ele>
        <time>2018-08-16T15:29:23Z</time>
      </trkpt>
      <trkpt lat="47.22623" lon="6.37311">
        <ele>578</ele>
        <time>2018-08-16T15:29:25Z</time>
      </trkpt>
      <trkpt lat="47.22666" lon="6.3734">
        <ele>580</ele>
        <time>2018-08-16T15:29:31Z</time>
      </trkpt>
      <trkpt lat="47.22675" lon="6.37347">
        <ele>580</ele>
        <time>2018-08-16T15:29:32Z</time>
      </trkpt>
      <trkpt lat="47.22699" lon="6.37364">
        <ele>581</ele>
        <time>2018-08-16T15:29:35Z</time>
      </trkpt>
      <trkpt lat="47.22889" lon="6.37589">
        <ele>578</ele>
        <time>2018-08-16T15:29:56Z</time>
      </trkpt>
      <trkpt lat="47.22935" lon="6.37612">
        <ele>578</ele>
        <time>2018-08-16T15:30:00Z</time>
      </trkpt>
      <trkpt lat="47.23348" lon="6.37752">
        <ele>564</ele>
        <time>2018-08-16T15:30:31Z</time>
      </trkpt>
      <trkpt lat="47.23537" lon="6.37858">
        <ele>557</ele>
        <time>2018-08-16T15:30:45Z</time>
      </trkpt>
      <trkpt lat="47.23592" lon="6.37854">
        <ele>554</ele>
        <time>2018-08-16T15:30:49Z</time>
      </trkpt>
      <trkpt lat="47.23606" lon="6.37853">
        <ele>554</ele>
        <time>2018-08-16T15:30:50Z</time>
      </trkpt>
      <trkpt lat="47.23621" lon="6.37852">
        <ele>554</ele>
        <time>2018-08-16T15:30:51Z</time>
      </trkpt>
      <trkpt lat="47.23765" lon="6.37842">
        <ele>552</ele>
        <time>2018-08-16T15:31:01Z</time>
      </trkpt>
      <trkpt lat="47.23805" lon="6.37844">
        <ele>549</ele>
        <time>2018-08-16T15:31:04Z</time>
      </trkpt>
      <trkpt lat="47.23818" lon="6.37848">
        <ele>551</ele>
        <time>2018-08-16T15:31:05Z</time>
      </trkpt>
      <trkpt lat="47.23829" lon="6.37852">
        <ele>550</ele>
        <time>2018-08-16T15:31:06Z</time>
      </trkpt>
      <trkpt lat="47.23841" lon="6.37856">
        <ele>550</ele>
        <time>2018-08-16T15:31:07Z</time>
      </trkpt>
      <trkpt lat="47.23853" lon="6.37862">
        <ele>550</ele>
        <time>2018-08-16T15:31:08Z</time>
      </trkpt>
      <trkpt lat="47.23865" lon="6.37866">
        <ele>551</ele>
        <time>2018-08-16T15:31:09Z</time>
      </trkpt>
      <trkpt lat="47.23877" lon="6.37872">
        <ele>550</ele>
        <time>2018-08-16T15:31:10Z</time>
      </trkpt>
      <trkpt lat="47.23888" lon="6.37877">
        <ele>549</ele>
        <time>2018-08-16T15:31:11Z</time>
      </trkpt>
      <trkpt lat="47.2392" lon="6.379">
        <ele>549</ele>
        <time>2018-08-16T15:31:14Z</time>
      </trkpt>
      <trkpt lat="47.23942" lon="6.37925">
        <ele>546</ele>
        <time>2018-08-16T15:31:16Z</time>
      </trkpt>
      <trkpt lat="47.23951" lon="6.37938">
        <ele>545</ele>
        <time>2018-08-16T15:31:17Z</time>
      </trkpt>
      <trkpt lat="47.23993" lon="6.37998">
        <ele>537</ele>
        <time>2018-08-16T15:31:21Z</time>
      </trkpt>
      <trkpt lat="47.24047" lon="6.38078">
        <ele>536</ele>
        <time>2018-08-16T15:31:26Z</time>
      </trkpt>
      <trkpt lat="47.24057" lon="6.38096">
        <ele>534</ele>
        <time>2018-08-16T15:31:27Z</time>
      </trkpt>
      <trkpt lat="47.24066" lon="6.38113">
        <ele>534</ele>
        <time>2018-08-16T15:31:28Z</time>
      </trkpt>
      <trkpt lat="47.24075" lon="6.38127">
        <ele>533</ele>
        <time>2018-08-16T15:31:29Z</time>
      </trkpt>
      <trkpt lat="47.24099" lon="6.38171">
        <ele>536</ele>
        <time>2018-08-16T15:31:32Z</time>
      </trkpt>
      <trkpt lat="47.24119" lon="6.38193">
        <ele>536</ele>
        <time>2018-08-16T15:31:34Z</time>
      </trkpt>
      <trkpt lat="47.2414" lon="6.38209">
        <ele>537</ele>
        <time>2018-08-16T15:31:36Z</time>
      </trkpt>
      <trkpt lat="47.24215" lon="6.38227">
        <ele>533</ele>
        <time>2018-08-16T15:31:42Z</time>
      </trkpt>
      <trkpt lat="47.24241" lon="6.38237">
        <ele>534</ele>
        <time>2018-08-16T15:31:44Z</time>
      </trkpt>
      <trkpt lat="47.24255" lon="6.38243">
        <ele>534</ele>
        <time>2018-08-16T15:31:45Z</time>
      </trkpt>
      <trkpt lat="47.24268" lon="6.38251">
        <ele>534</ele>
        <time>2018-08-16T15:31:46Z</time>
      </trkpt>
      <trkpt lat="47.24281" lon="6.3826">
        <ele>533</ele>
        <time>2018-08-16T15:31:47Z</time>
      </trkpt>
      <trkpt lat="47.2439" lon="6.38338">
        <ele>535</ele>
        <time>2018-08-16T15:31:56Z</time>
      </trkpt>
      <trkpt lat="47.244" lon="6.38346">
        <ele>533</ele>
        <time>2018-08-16T15:31:57Z</time>
      </trkpt>
      <trkpt lat="47.24412" lon="6.38353">
        <ele>534</ele>
        <time>2018-08-16T15:31:58Z</time>
      </trkpt>
      <trkpt lat="47.24424" lon="6.3836">
        <ele>533</ele>
        <time>2018-08-16T15:31:59Z</time>
      </trkpt>
      <trkpt lat="47.24436" lon="6.38364">
        <ele>533</ele>
        <time>2018-08-16T15:32:00Z</time>
      </trkpt>
      <trkpt lat="47.24447" lon="6.38367">
        <ele>533</ele>
        <time>2018-08-16T15:32:01Z</time>
      </trkpt>
      <trkpt lat="47.2446" lon="6.3837">
        <ele>531</ele>
        <time>2018-08-16T15:32:02Z</time>
      </trkpt>
      <trkpt lat="47.24484" lon="6.38374">
        <ele>532</ele>
        <time>2018-08-16T15:32:04Z</time>
      </trkpt>
      <trkpt lat="47.24494" lon="6.38378">
        <ele>530</ele>
        <time>2018-08-16T15:32:05Z</time>
      </trkpt>
      <trkpt lat="47.24567" lon="6.38418">
        <ele>528</ele>
        <time>2018-08-16T15:32:12Z</time>
      </trkpt>
      <trkpt lat="47.24575" lon="6.38425">
        <ele>528</ele>
        <time>2018-08-16T15:32:13Z</time>
      </trkpt>
      <trkpt lat="47.2459" lon="6.38439">
        <ele>527</ele>
        <time>2018-08-16T15:32:15Z</time>
      </trkpt>
      <trkpt lat="47.2464" lon="6.38508">
        <ele>527</ele>
        <time>2018-08-16T15:32:22Z</time>
      </trkpt>
      <trkpt lat="47.24647" lon="6.38518">
        <ele>528</ele>
        <time>2018-08-16T15:32:23Z</time>
      </trkpt>
      <trkpt lat="47.24673" lon="6.38564">
        <ele>526</ele>
        <time>2018-08-16T15:32:27Z</time>
      </trkpt>
      <trkpt lat="47.24685" lon="6.38587">
        <ele>527</ele>
        <time>2018-08-16T15:32:29Z</time>
      </trkpt>
      <trkpt lat="47.24689" lon="6.38599">
        <ele>526</ele>
        <time>2018-08-16T15:32:30Z</time>
      </trkpt>
      <trkpt lat="47.24694" lon="6.38609">
        <ele>527</ele>
        <time>2018-08-16T15:32:31Z</time>
      </trkpt>
      <trkpt lat="47.247" lon="6.38619">
        <ele>526</ele>
        <time>2018-08-16T15:32:32Z</time>
      </trkpt>
      <trkpt lat="47.24709" lon="6.38636">
        <ele>526</ele>
        <time>2018-08-16T15:32:34Z</time>
      </trkpt>
      <trkpt lat="47.24722" lon="6.38653">
        <ele>524</ele>
        <time>2018-08-16T15:32:37Z</time>
      </trkpt>
      <trkpt lat="47.24726" lon="6.38656">
        <ele>524</ele>
        <time>2018-08-16T15:32:38Z</time>
      </trkpt>
      <trkpt lat="47.24735" lon="6.3866">
        <ele>525</ele>
        <time>2018-08-16T15:32:40Z</time>
      </trkpt>
      <trkpt lat="47.24739" lon="6.38661">
        <ele>524</ele>
        <time>2018-08-16T15:32:41Z</time>
      </trkpt>
      <trkpt lat="47.24745" lon="6.38665">
        <ele>524</ele>
        <time>2018-08-16T15:32:43Z</time>
      </trkpt>
      <trkpt lat="47.24751" lon="6.38671">
        <ele>525</ele>
        <time>2018-08-16T15:32:45Z</time>
      </trkpt>
      <trkpt lat="47.24754" lon="6.3868">
        <ele>526</ele>
        <time>2018-08-16T15:32:47Z</time>
      </trkpt>
      <trkpt lat="47.24756" lon="6.38689">
        <ele>526</ele>
        <time>2018-08-16T15:32:49Z</time>
      </trkpt>
      <trkpt lat="47.24753" lon="6.3871">
        <ele>524</ele>
        <time>2018-08-16T15:32:52Z</time>
      </trkpt>
      <trkpt lat="47.24752" lon="6.3873">
        <ele>525</ele>
        <time>2018-08-16T15:32:54Z</time>
      </trkpt>
      <trkpt lat="47.24752" lon="6.3874">
        <ele>525</ele>
        <time>2018-08-16T15:32:55Z</time>
      </trkpt>
      <trkpt lat="47.24754" lon="6.3875">
        <ele>525</ele>
        <time>2018-08-16T15:32:56Z</time>
      </trkpt>
      <trkpt lat="47.24757" lon="6.38768">
        <ele>528</ele>
        <time>2018-08-16T15:32:58Z</time>
      </trkpt>
      <trkpt lat="47.24764" lon="6.38799">
        <ele>529</ele>
        <time>2018-08-16T15:33:02Z</time>
      </trkpt>
      <trkpt lat="47.2477" lon="6.38817">
        <ele>531</ele>
        <time>2018-08-16T15:33:05Z</time>
      </trkpt>
      <trkpt lat="47.24772" lon="6.38824">
        <ele>531</ele>
        <time>2018-08-16T15:33:06Z</time>
      </trkpt>
      <trkpt lat="47.24776" lon="6.38839">
        <ele>532</ele>
        <time>2018-08-16T15:33:09Z</time>
      </trkpt>
      <trkpt lat="47.24781" lon="6.38845">
        <ele>527</ele>
        <time>2018-08-16T15:33:27Z</time>
      </trkpt>
      <trkpt lat="47.24778" lon="6.3884">
        <ele>525</ele>
        <time>2018-08-16T15:34:02Z</time>
      </trkpt>
    </trkseg>
  </trk>
</gpx>